Wetterdaten: Montag, 16.03.2015
Datum Zeit Temp. Aussen +5cm Feuchte Auss Luftdruck Regen Sonnenschein Regendauer Solar Windben
16.03.2015 00:00 4,9 C 3,3 C 88 % 1024,3 hPa 0,0 l/m 0 min 0 min 0 W/m 14,6 km/h (3 Bft)
16.03.2015 00:02 4,9 C 3,3 C 88 % 1024,3 hPa 0,0 l/m 0 min 0 min 0 W/m 6,3 km/h (2 Bft)
16.03.2015 00:06 4,9 C 2,8 C 88 % 1024,2 hPa 0,0 l/m 0 min 0 min 0 W/m 10,5 km/h (2 Bft)
16.03.2015 00:08 4,9 C 2,8 C 88 % 1024,3 hPa 0,0 l/m 0 min 0 min 0 W/m 10,5 km/h (2 Bft)
16.03.2015 00:10 4,8 C 2,8 C 88 % 1024,2 hPa 0,0 l/m 0 min 0 min 0 W/m 14,6 km/h (3 Bft)
16.03.2015 00:12 4,8 C 2,8 C 88 % 1024,2 hPa 0,0 l/m 0 min 0 min 0 W/m 12,6 km/h (3 Bft)
16.03.2015 00:14 4,8 C 2,8 C 88 % 1024,2 hPa 0,0 l/m 0 min 0 min 0 W/m 16,7 km/h (3 Bft)
16.03.2015 00:16 4,7 C 2,2 C 88 % 1024,2 hPa 0,0 l/m 0 min 0 min 0 W/m 16,7 km/h (3 Bft)
16.03.2015 00:18 4,7 C 2,2 C 88 % 1024,2 hPa 0,0 l/m 0 min 0 min 0 W/m 14,6 km/h (3 Bft)
16.03.2015 00:20 4,7 C 2,2 C 88 % 1024,1 hPa 0,0 l/m 0 min 0 min 0 W/m 10,5 km/h (2 Bft)
16.03.2015 00:22 4,6 C 2,2 C 88 % 1024,2 hPa 0,0 l/m 0 min 0 min 0 W/m 8,4 km/h (2 Bft)
16.03.2015 00:24 4,6 C 2,2 C 88 % 1024,3 hPa 0,0 l/m 0 min 0 min 0 W/m 10,5 km/h (2 Bft)
16.03.2015 00:26 4,6 C 2,2 C 88 % 1024,2 hPa 0,0 l/m 0 min 0 min 0 W/m 8,4 km/h (2 Bft)
16.03.2015 00:28 4,5 C 2,2 C 88 % 1024,2 hPa 0,0 l/m 0 min 0 min 0 W/m 8,4 km/h (2 Bft)
16.03.2015 00:30 4,5 C 1,7 C 88 % 1024,2 hPa 0,0 l/m 0 min 0 min 0 W/m 10,5 km/h (2 Bft)
16.03.2015 00:32 4,4 C 1,7 C 88 % 1024,2 hPa 0,0 l/m 0 min 0 min 0 W/m 8,4 km/h (2 Bft)
16.03.2015 00:34 4,4 C 1,7 C 88 % 1024,2 hPa 0,0 l/m 0 min 0 min 0 W/m 8,4 km/h (2 Bft)
16.03.2015 00:36 4,4 C 1,7 C 88 % 1024,2 hPa 0,0 l/m 0 min 0 min 0 W/m 6,3 km/h (2 Bft)
16.03.2015 00:38 4,3 C 1,7 C 88 % 1024,2 hPa 0,0 l/m 0 min 0 min 0 W/m 8,4 km/h (2 Bft)
16.03.2015 00:40 4,3 C 1,7 C 88 % 1024,2 hPa 0,0 l/m 0 min 0 min 0 W/m 8,4 km/h (2 Bft)
16.03.2015 00:42 4,2 C 1,7 C 88 % 1024,2 hPa 0,0 l/m 0 min 0 min 0 W/m 6,3 km/h (2 Bft)
16.03.2015 00:44 4,2 C 1,7 C 88 % 1024,2 hPa 0,0 l/m 0 min 0 min 0 W/m 6,3 km/h (2 Bft)
16.03.2015 00:46 4,2 C 1,1 C 88 % 1024,2 hPa 0,0 l/m 0 min 0 min 0 W/m 6,3 km/h (2 Bft)
16.03.2015 00:48 4,1 C 1,1 C 88 % 1024,2 hPa 0,0 l/m 0 min 0 min 0 W/m 8,4 km/h (2 Bft)
16.03.2015 00:50 4,1 C 1,1 C 88 % 1024,2 hPa 0,0 l/m 0 min 0 min 0 W/m 8,4 km/h (2 Bft)
16.03.2015 00:52 4,1 C 1,1 C 88 % 1024,2 hPa 0,0 l/m 0 min 0 min 0 W/m 4,2 km/h (1 Bft)
16.03.2015 00:54 4,0 C 1,1 C 88 % 1024,2 hPa 0,0 l/m 0 min 0 min 0 W/m 10,5 km/h (2 Bft)
16.03.2015 00:56 3,9 C 1,1 C 88 % 1024,2 hPa 0,0 l/m 0 min 0 min 0 W/m 6,3 km/h (2 Bft)
16.03.2015 00:58 3,9 C 1,1 C 88 % 1024,2 hPa 0,0 l/m 0 min 0 min 0 W/m 6,3 km/h (2 Bft)
16.03.2015 01:00 3,9 C 1,1 C 88 % 1024,2 hPa 0,0 l/m 0 min 0 min 0 W/m 6,3 km/h (2 Bft)
16.03.2015 01:02 3,8 C 1,1 C 88 % 1024,2 hPa 0,0 l/m 0 min 0 min 0 W/m 8,4 km/h (2 Bft)
16.03.2015 01:04 3,8 C 1,1 C 88 % 1024,2 hPa 0,0 l/m 0 min 0 min 0 W/m 4,2 km/h (1 Bft)
16.03.2015 01:06 3,7 C 0,6 C 88 % 1024,2 hPa 0,0 l/m 0 min 0 min 0 W/m 6,3 km/h (2 Bft)
16.03.2015 01:08 3,7 C 0,6 C 88 % 1024,1 hPa 0,0 l/m 0 min 0 min 0 W/m 6,3 km/h (2 Bft)
16.03.2015 01:10 3,7 C 0,6 C 88 % 1024,1 hPa 0,0 l/m 0 min 0 min 0 W/m 6,3 km/h (2 Bft)
16.03.2015 01:12 3,6 C 0,6 C 88 % 1024,1 hPa 0,0 l/m 0 min 0 min 0 W/m 8,4 km/h (2 Bft)
16.03.2015 01:14 3,6 C 0,6 C 88 % 1024,1 hPa 0,0 l/m 0 min 0 min 0 W/m 6,3 km/h (2 Bft)
16.03.2015 01:16 3,5 C 0,6 C 88 % 1024,2 hPa 0,0 l/m 0 min 0 min 0 W/m 6,3 km/h (2 Bft)
16.03.2015 01:18 3,5 C 0,6 C 88 % 1024,1 hPa 0,0 l/m 0 min 0 min 0 W/m 6,3 km/h (2 Bft)
16.03.2015 01:20 3,4 C 0,6 C 88 % 1024,1 hPa 0,0 l/m 0 min 0 min 0 W/m 8,4 km/h (2 Bft)
16.03.2015 01:22 3,4 C 0,6 C 88 % 1024,1 hPa 0,0 l/m 0 min 0 min 0 W/m 6,3 km/h (2 Bft)
16.03.2015 01:24 3,3 C 0,6 C 88 % 1024,1 hPa 0,0 l/m 0 min 0 min 0 W/m 6,3 km/h (2 Bft)
16.03.2015 01:26 3,3 C 0,6 C 88 % 1024,1 hPa 0,0 l/m 0 min 0 min 0 W/m 6,3 km/h (2 Bft)
16.03.2015 01:28 3,3 C 0,6 C 88 % 1024,1 hPa 0,0 l/m 0 min 0 min 0 W/m 6,3 km/h (2 Bft)
16.03.2015 01:30 3,2 C 0,6 C 88 % 1024,1 hPa 0,0 l/m 0 min 0 min 0 W/m 8,4 km/h (2 Bft)
16.03.2015 01:32 3,2 C 0,0 C 88 % 1024,1 hPa 0,0 l/m 0 min 0 min 0 W/m 6,3 km/h (2 Bft)
16.03.2015 01:34 3,1 C 0,0 C 88 % 1024,1 hPa 0,0 l/m 0 min 0 min 0 W/m 6,3 km/h (2 Bft)
16.03.2015 01:36 3,1 C 0,0 C 88 % 1024,1 hPa 0,0 l/m 0 min 0 min 0 W/m 6,3 km/h (2 Bft)
16.03.2015 01:38 3,1 C 0,0 C 88 % 1024,1 hPa 0,0 l/m 0 min 0 min 0 W/m 6,3 km/h (2 Bft)
16.03.2015 01:40 3,0 C 0,0 C 88 % 1024,1 hPa 0,0 l/m 0 min 0 min 0 W/m 8,4 km/h (2 Bft)
16.03.2015 01:42 2,9 C 0,0 C 88 % 1024,0 hPa 0,0 l/m 0 min 0 min 0 W/m 8,4 km/h (2 Bft)
16.03.2015 01:44 2,9 C 0,0 C 88 % 1024,0 hPa 0,0 l/m 0 min 0 min 0 W/m 8,4 km/h (2 Bft)
16.03.2015 01:46 2,9 C 0,0 C 88 % 1024,1 hPa 0,0 l/m 0 min 0 min 0 W/m 6,3 km/h (2 Bft)
16.03.2015 01:48 2,8 C 0,0 C 88 % 1024,1 hPa 0,0 l/m 0 min 0 min 0 W/m 6,3 km/h (2 Bft)
16.03.2015 01:50 2,8 C 0,0 C 88 % 1024,1 hPa 0,0 l/m 0 min 0 min 0 W/m 6,3 km/h (2 Bft)
16.03.2015 01:52 2,8 C 0,0 C 88 % 1024,1 hPa 0,0 l/m 0 min 0 min 0 W/m 4,2 km/h (1 Bft)
16.03.2015 01:54 2,7 C 0,0 C 88 % 1024,0 hPa 0,0 l/m 0 min 0 min 0 W/m 4,2 km/h (1 Bft)
16.03.2015 01:56 2,7 C 0,0 C 88 % 1024,0 hPa 0,0 l/m 0 min 0 min 0 W/m 4,2 km/h (1 Bft)
16.03.2015 01:58 2,7 C 0,0 C 88 % 1024,0 hPa 0,0 l/m 0 min 0 min 0 W/m 2,1 km/h (1 Bft)
16.03.2015 02:00 2,6 C 0,0 C 88 % 1024,0 hPa 0,0 l/m 0 min 0 min 0 W/m 6,3 km/h (2 Bft)
16.03.2015 02:02 2,6 C 0,0 C 89 % 1023,9 hPa 0,0 l/m 0 min 0 min 0 W/m 4,2 km/h (1 Bft)
16.03.2015 02:04 2,6 C 0,0 C 89 % 1023,9 hPa 0,0 l/m 0 min 0 min 0 W/m 4,2 km/h (1 Bft)
16.03.2015 02:06 2,5 C 0,0 C 88 % 1023,9 hPa 0,0 l/m 0 min 0 min 0 W/m 4,2 km/h (1 Bft)
16.03.2015 02:08 2,4 C 0,0 C 88 % 1023,9 hPa 0,0 l/m 0 min 0 min 0 W/m 6,3 km/h (2 Bft)
16.03.2015 02:10 2,4 C 0,0 C 88 % 1023,9 hPa 0,0 l/m 0 min 0 min 0 W/m 4,2 km/h (1 Bft)
16.03.2015 02:12 2,4 C 0,0 C 88 % 1023,9 hPa 0,0 l/m 0 min 0 min 0 W/m 4,2 km/h (1 Bft)
16.03.2015 02:14 2,3 C -0,6 C 88 % 1023,8 hPa 0,0 l/m 0 min 0 min 0 W/m 4,2 km/h (1 Bft)
16.03.2015 02:16 2,3 C -0,6 C 89 % 1023,8 hPa 0,0 l/m 0 min 0 min 0 W/m 4,2 km/h (1 Bft)
16.03.2015 02:18 2,3 C -0,6 C 89 % 1023,8 hPa 0,0 l/m 0 min 0 min 0 W/m 4,2 km/h (1 Bft)
16.03.2015 02:20 2,2 C -0,6 C 89 % 1023,9 hPa 0,0 l/m 0 min 0 min 0 W/m 4,2 km/h (1 Bft)
16.03.2015 02:22 2,2 C -0,6 C 89 % 1023,8 hPa 0,0 l/m 0 min 0 min 0 W/m 4,2 km/h (1 Bft)
16.03.2015 02:24 2,1 C -0,6 C 89 % 1023,8 hPa 0,0 l/m 0 min 0 min 0 W/m 4,2 km/h (1 Bft)
16.03.2015 02:26 2,1 C -0,6 C 88 % 1023,7 hPa 0,0 l/m 0 min 0 min 0 W/m 4,2 km/h (1 Bft)
16.03.2015 02:28 2,1 C -0,6 C 88 % 1023,7 hPa 0,0 l/m 0 min 0 min 0 W/m 2,1 km/h (1 Bft)
16.03.2015 02:30 2,0 C -0,6 C 89 % 1023,7 hPa 0,0 l/m 0 min 0 min 0 W/m 2,1 km/h (1 Bft)
16.03.2015 02:32 1,9 C -0,6 C 89 % 1023,7 hPa 0,0 l/m 0 min 0 min 0 W/m 2,1 km/h (1 Bft)
16.03.2015 02:34 1,9 C -0,6 C 89 % 1023,7 hPa 0,0 l/m 0 min 0 min 0 W/m 2,1 km/h (1 Bft)
16.03.2015 02:36 1,9 C -0,6 C 89 % 1023,6 hPa 0,0 l/m 0 min 0 min 0 W/m 4,2 km/h (1 Bft)
16.03.2015 02:38 1,8 C -0,6 C 89 % 1023,6 hPa 0,0 l/m 0 min 0 min 0 W/m 4,2 km/h (1 Bft)
16.03.2015 02:40 1,8 C -0,6 C 89 % 1023,6 hPa 0,0 l/m 0 min 0 min 0 W/m 4,2 km/h (1 Bft)
16.03.2015 02:42 1,8 C -0,6 C 89 % 1023,6 hPa 0,0 l/m 0 min 0 min 0 W/m 2,1 km/h (1 Bft)
16.03.2015 02:44 1,7 C -0,6 C 89 % 1023,6 hPa 0,0 l/m 0 min 0 min 0 W/m 2,1 km/h (1 Bft)
16.03.2015 02:46 1,7 C -0,6 C 89 % 1023,5 hPa 0,0 l/m 0 min 0 min 0 W/m 4,2 km/h (1 Bft)
16.03.2015 02:48 1,7 C -0,6 C 89 % 1023,6 hPa 0,0 l/m 0 min 0 min 0 W/m 4,2 km/h (1 Bft)
16.03.2015 02:50 1,6 C -0,6 C 89 % 1023,6 hPa 0,0 l/m 0 min 0 min 0 W/m 4,2 km/h (1 Bft)
16.03.2015 02:52 1,6 C -0,6 C 89 % 1023,6 hPa 0,0 l/m 0 min 0 min 0 W/m 2,1 km/h (1 Bft)
16.03.2015 02:54 1,6 C -1,1 C 89 % 1023,5 hPa 0,0 l/m 0 min 0 min 0 W/m 4,2 km/h (1 Bft)
16.03.2015 02:56 1,5 C -1,1 C 89 % 1023,6 hPa 0,0 l/m 0 min 0 min 0 W/m 4,2 km/h (1 Bft)
16.03.2015 02:58 1,5 C -1,1 C 89 % 1023,6 hPa 0,0 l/m 0 min 0 min 0 W/m 4,2 km/h (1 Bft)
16.03.2015 03:00 1,4 C -1,1 C 89 % 1023,5 hPa 0,0 l/m 0 min 0 min 0 W/m 4,2 km/h (1 Bft)
16.03.2015 03:02 1,4 C -1,1 C 89 % 1023,6 hPa 0,0 l/m 0 min 0 min 0 W/m 4,2 km/h (1 Bft)
16.03.2015 03:04 1,4 C -1,1 C 89 % 1023,5 hPa 0,0 l/m 0 min 0 min 0 W/m 4,2 km/h (1 Bft)
16.03.2015 03:06 1,3 C -1,1 C 89 % 1023,5 hPa 0,0 l/m 0 min 0 min 0 W/m 4,2 km/h (1 Bft)
16.03.2015 03:08 1,3 C -1,1 C 89 % 1023,6 hPa 0,0 l/m 0 min 0 min 0 W/m 4,2 km/h (1 Bft)
16.03.2015 03:10 1,3 C -1,1 C 89 % 1023,6 hPa 0,0 l/m 0 min 0 min 0 W/m 4,2 km/h (1 Bft)
16.03.2015 03:12 1,2 C -1,1 C 89 % 1023,6 hPa 0,0 l/m 0 min 0 min 0 W/m 4,2 km/h (1 Bft)
16.03.2015 03:14 1,2 C -1,1 C 89 % 1023,5 hPa 0,0 l/m 0 min 0 min 0 W/m 4,2 km/h (1 Bft)
16.03.2015 03:16 1,2 C -1,1 C 89 % 1023,6 hPa 0,0 l/m 0 min 0 min 0 W/m 2,1 km/h (1 Bft)
16.03.2015 03:18 1,2 C -1,1 C 89 % 1023,6 hPa 0,0 l/m 0 min 0 min 0 W/m 4,2 km/h (1 Bft)
16.03.2015 03:20 1,1 C -1,1 C 89 % 1023,6 hPa 0,0 l/m 0 min 0 min 0 W/m 4,2 km/h (1 Bft)
16.03.2015 03:22 1,1 C -1,1 C 89 % 1023,5 hPa 0,0 l/m 0 min 0 min 0 W/m 4,2 km/h (1 Bft)
16.03.2015 03:24 1,0 C -1,1 C 89 % 1023,6 hPa 0,0 l/m 0 min 0 min 0 W/m 4,2 km/h (1 Bft)
16.03.2015 03:26 1,0 C -1,1 C 89 % 1023,6 hPa 0,0 l/m 0 min 0 min 0 W/m 4,2 km/h (1 Bft)
16.03.2015 03:28 1,0 C -1,1 C 89 % 1023,6 hPa 0,0 l/m 0 min 0 min 0 W/m 2,1 km/h (1 Bft)
16.03.2015 03:30 0,9 C -1,1 C 89 % 1023,5 hPa 0,0 l/m 0 min 0 min 0 W/m 2,1 km/h (1 Bft)
16.03.2015 03:32 0,9 C -1,1 C 89 % 1023,5 hPa 0,0 l/m 0 min 0 min 0 W/m 2,1 km/h (1 Bft)
16.03.2015 03:34 0,9 C -1,1 C 89 % 1023,5 hPa 0,0 l/m 0 min 0 min 0 W/m 4,2 km/h (1 Bft)
16.03.2015 03:36 0,8 C -1,1 C 89 % 1023,5 hPa 0,0 l/m 0 min 0 min 0 W/m 2,1 km/h (1 Bft)
16.03.2015 03:38 0,8 C -1,1 C 89 % 1023,5 hPa 0,0 l/m 0 min 0 min 0 W/m 2,1 km/h (1 Bft)
16.03.2015 03:40 0,8 C -1,1 C 89 % 1023,4 hPa 0,0 l/m 0 min 0 min 0 W/m 4,2 km/h (1 Bft)
16.03.2015 03:42 0,8 C -1,1 C 89 % 1023,5 hPa 0,0 l/m 0 min 0 min 0 W/m 4,2 km/h (1 Bft)
16.03.2015 03:44 0,7 C -1,1 C 89 % 1023,5 hPa 0,0 l/m 0 min 0 min 0 W/m 4,2 km/h (1 Bft)
16.03.2015 03:46 0,7 C -1,7 C 89 % 1023,4 hPa 0,0 l/m 0 min 0 min 0 W/m 4,2 km/h (1 Bft)
16.03.2015 03:48 0,7 C -1,7 C 89 % 1023,4 hPa 0,0 l/m 0 min 0 min 0 W/m 4,2 km/h (1 Bft)
16.03.2015 03:50 0,6 C -1,7 C 89 % 1023,4 hPa 0,0 l/m 0 min 0 min 0 W/m 4,2 km/h (1 Bft)
16.03.2015 03:52 0,6 C -1,7 C 89 % 1023,4 hPa 0,0 l/m 0 min 0 min 0 W/m 4,2 km/h (1 Bft)
16.03.2015 03:54 0,6 C -1,7 C 89 % 1023,4 hPa 0,0 l/m 0 min 0 min 0 W/m 6,3 km/h (2 Bft)
16.03.2015 03:56 0,6 C -1,7 C 89 % 1023,3 hPa 0,0 l/m 0 min 0 min 0 W/m 4,2 km/h (1 Bft)
16.03.2015 03:58 0,5 C -1,7 C 89 % 1023,4 hPa 0,0 l/m 0 min 0 min 0 W/m 4,2 km/h (1 Bft)
16.03.2015 04:00 0,5 C -1,7 C 89 % 1023,4 hPa 0,0 l/m 0 min 0 min 0 W/m 6,3 km/h (2 Bft)
16.03.2015 04:05 0,5 C -1,7 C 89 % 1023,3 hPa 0,0 l/m 0 min 0 min 0 W/m 6,3 km/h (2 Bft)
16.03.2015 04:06 0,5 C -1,7 C 89 % 1023,3 hPa 0,0 l/m 0 min 0 min 0 W/m 4,2 km/h (1 Bft)
16.03.2015 04:08 0,5 C -1,7 C 89 % 1023,2 hPa 0,0 l/m 0 min 0 min 0 W/m 4,2 km/h (1 Bft)
16.03.2015 04:10 0,4 C -1,7 C 89 % 1023,3 hPa 0,0 l/m 0 min 0 min 0 W/m 6,3 km/h (2 Bft)
16.03.2015 04:12 0,4 C -1,7 C 90 % 1023,2 hPa 0,0 l/m 0 min 0 min 0 W/m 6,3 km/h (2 Bft)
16.03.2015 04:14 0,4 C -1,7 C 90 % 1023,2 hPa 0,0 l/m 0 min 0 min 0 W/m 6,3 km/h (2 Bft)
16.03.2015 04:16 0,4 C -1,7 C 90 % 1023,2 hPa 0,0 l/m 0 min 0 min 0 W/m 6,3 km/h (2 Bft)
16.03.2015 04:18 0,3 C -1,7 C 90 % 1023,2 hPa 0,0 l/m 0 min 0 min 0 W/m 6,3 km/h (2 Bft)
16.03.2015 04:20 0,3 C -1,7 C 90 % 1023,3 hPa 0,0 l/m 0 min 0 min 0 W/m 6,3 km/h (2 Bft)
16.03.2015 04:22 0,3 C -1,1 C 90 % 1023,4 hPa 0,0 l/m 0 min 0 min 0 W/m 10,5 km/h (2 Bft)
16.03.2015 04:24 0,3 C -1,1 C 90 % 1023,4 hPa 0,0 l/m 0 min 0 min 0 W/m 6,3 km/h (2 Bft)
16.03.2015 04:26 0,3 C -1,1 C 90 % 1023,3 hPa 0,0 l/m 0 min 0 min 0 W/m 4,2 km/h (1 Bft)
16.03.2015 04:28 0,3 C -1,1 C 90 % 1023,3 hPa 0,0 l/m 0 min 0 min 0 W/m 6,3 km/h (2 Bft)
16.03.2015 04:30 0,3 C -1,1 C 90 % 1023,4 hPa 0,0 l/m 0 min 0 min 0 W/m 6,3 km/h (2 Bft)
16.03.2015 04:32 0,3 C -1,1 C 90 % 1023,3 hPa 0,0 l/m 0 min 0 min 0 W/m 6,3 km/h (2 Bft)
16.03.2015 04:34 0,3 C -1,1 C 91 % 1023,3 hPa 0,0 l/m 0 min 0 min 0 W/m 6,3 km/h (2 Bft)
16.03.2015 04:36 0,3 C -1,1 C 91 % 1023,3 hPa 0,0 l/m 0 min 0 min 0 W/m 4,2 km/h (1 Bft)
16.03.2015 04:38 0,3 C -1,1 C 91 % 1023,3 hPa 0,0 l/m 0 min 0 min 0 W/m 6,3 km/h (2 Bft)
16.03.2015 04:40 0,3 C -1,1 C 91 % 1023,3 hPa 0,0 l/m 0 min 0 min 0 W/m 6,3 km/h (2 Bft)
16.03.2015 04:42 0,3 C -1,1 C 91 % 1023,3 hPa 0,0 l/m 0 min 0 min 0 W/m 6,3 km/h (2 Bft)
16.03.2015 04:44 0,3 C -1,1 C 91 % 1023,3 hPa 0,0 l/m 0 min 0 min 0 W/m 4,2 km/h (1 Bft)
16.03.2015 04:46 0,3 C -1,1 C 91 % 1023,3 hPa 0,0 l/m 0 min 0 min 0 W/m 4,2 km/h (1 Bft)
16.03.2015 04:48 0,3 C -1,1 C 91 % 1023,3 hPa 0,0 l/m 0 min 0 min 0 W/m 6,3 km/h (2 Bft)
16.03.2015 04:50 0,3 C -1,1 C 91 % 1023,3 hPa 0,0 l/m 0 min 0 min 0 W/m 6,3 km/h (2 Bft)
16.03.2015 04:52 0,3 C -1,1 C 91 % 1023,3 hPa 0,0 l/m 0 min 0 min 0 W/m 4,2 km/h (1 Bft)
16.03.2015 04:54 0,3 C -1,1 C 91 % 1023,3 hPa 0,0 l/m 0 min 0 min 0 W/m 6,3 km/h (2 Bft)
16.03.2015 04:56 0,3 C -1,1 C 91 % 1023,3 hPa 0,0 l/m 0 min 0 min 0 W/m 8,4 km/h (2 Bft)
16.03.2015 04:58 0,3 C -1,1 C 91 % 1023,2 hPa 0,0 l/m 0 min 0 min 0 W/m 6,3 km/h (2 Bft)
16.03.2015 05:00 0,3 C -1,1 C 91 % 1023,2 hPa 0,0 l/m 0 min 0 min 0 W/m 6,3 km/h (2 Bft)
16.03.2015 05:02 0,3 C -1,1 C 92 % 1023,3 hPa 0,0 l/m 0 min 0 min 0 W/m 8,4 km/h (2 Bft)
16.03.2015 05:04 0,3 C -1,1 C 92 % 1023,2 hPa 0,0 l/m 0 min 0 min 0 W/m 6,3 km/h (2 Bft)
16.03.2015 05:06 0,4 C -1,1 C 92 % 1023,2 hPa 0,0 l/m 0 min 0 min 0 W/m 6,3 km/h (2 Bft)
16.03.2015 05:08 0,4 C -1,1 C 92 % 1023,2 hPa 0,0 l/m 0 min 0 min 0 W/m 10,5 km/h (2 Bft)
16.03.2015 05:10 0,4 C -1,1 C 92 % 1023,2 hPa 0,0 l/m 0 min 0 min 0 W/m 12,6 km/h (3 Bft)
16.03.2015 05:12 0,4 C -1,1 C 92 % 1023,2 hPa 0,0 l/m 0 min 0 min 0 W/m 6,3 km/h (2 Bft)
16.03.2015 05:14 0,4 C -1,1 C 92 % 1023,2 hPa 0,0 l/m 0 min 0 min 0 W/m 6,3 km/h (2 Bft)
16.03.2015 05:16 0,4 C -1,1 C 92 % 1023,2 hPa 0,0 l/m 0 min 0 min 0 W/m 6,3 km/h (2 Bft)
16.03.2015 05:18 0,4 C -1,1 C 92 % 1023,1 hPa 0,0 l/m 0 min 0 min 0 W/m 6,3 km/h (2 Bft)
16.03.2015 05:20 0,5 C -1,1 C 92 % 1023,2 hPa 0,0 l/m 0 min 0 min 0 W/m 8,4 km/h (2 Bft)
16.03.2015 05:22 0,5 C -1,1 C 92 % 1023,2 hPa 0,0 l/m 0 min 0 min 0 W/m 10,5 km/h (2 Bft)
16.03.2015 05:24 0,5 C -1,1 C 93 % 1023,2 hPa 0,0 l/m 0 min 0 min 0 W/m 6,3 km/h (2 Bft)
16.03.2015 05:26 0,5 C -1,1 C 93 % 1023,2 hPa 0,0 l/m 0 min 0 min 0 W/m 8,4 km/h (2 Bft)
16.03.2015 05:28 0,5 C -1,1 C 92 % 1023,2 hPa 0,0 l/m 0 min 0 min 0 W/m 6,3 km/h (2 Bft)
16.03.2015 05:30 0,5 C -1,1 C 93 % 1023,2 hPa 0,0 l/m 0 min 0 min 0 W/m 8,4 km/h (2 Bft)
16.03.2015 05:32 0,5 C -1,1 C 93 % 1023,1 hPa 0,0 l/m 0 min 0 min 0 W/m 6,3 km/h (2 Bft)
16.03.2015 05:34 0,5 C -1,1 C 93 % 1023,1 hPa 0,0 l/m 0 min 0 min 0 W/m 6,3 km/h (2 Bft)
16.03.2015 05:36 0,5 C -1,1 C 93 % 1023,1 hPa 0,0 l/m 0 min 0 min 0 W/m 6,3 km/h (2 Bft)
16.03.2015 05:38 0,6 C -1,1 C 93 % 1023,2 hPa 0,0 l/m 0 min 0 min 0 W/m 6,3 km/h (2 Bft)
16.03.2015 05:40 0,6 C -1,1 C 93 % 1023,2 hPa 0,0 l/m 0 min 0 min 0 W/m 6,3 km/h (2 Bft)
16.03.2015 05:42 0,6 C -1,1 C 93 % 1023,1 hPa 0,0 l/m 0 min 0 min 0 W/m 6,3 km/h (2 Bft)
16.03.2015 05:44 0,6 C -1,1 C 93 % 1023,1 hPa 0,0 l/m 0 min 0 min 0 W/m 8,4 km/h (2 Bft)
16.03.2015 05:46 0,6 C -1,1 C 93 % 1023,1 hPa 0,0 l/m 0 min 0 min 0 W/m 8,4 km/h (2 Bft)
16.03.2015 05:48 0,6 C -1,1 C 93 % 1023,1 hPa 0,0 l/m 0 min 0 min 0 W/m 4,2 km/h (1 Bft)
16.03.2015 05:50 0,6 C -1,1 C 93 % 1023,1 hPa 0,0 l/m 0 min 0 min 0 W/m 2,1 km/h (1 Bft)
16.03.2015 05:52 0,6 C -1,1 C 93 % 1023,1 hPa 0,0 l/m 0 min 0 min 0 W/m 6,3 km/h (2 Bft)
16.03.2015 05:54 0,6 C -1,1 C 93 % 1023,1 hPa 0,0 l/m 0 min 0 min 0 W/m 6,3 km/h (2 Bft)
16.03.2015 05:56 0,7 C -1,1 C 93 % 1023,1 hPa 0,0 l/m 0 min 0 min 0 W/m 8,4 km/h (2 Bft)
16.03.2015 05:58 0,7 C -1,1 C 93 % 1023,1 hPa 0,0 l/m 0 min 0 min 0 W/m 10,5 km/h (2 Bft)
16.03.2015 06:00 0,7 C -1,1 C 93 % 1023,1 hPa 0,0 l/m 0 min 0 min 0 W/m 6,3 km/h (2 Bft)
16.03.2015 06:02 0,7 C -1,1 C 93 % 1023,1 hPa 0,0 l/m 0 min 0 min 0 W/m 10,5 km/h (2 Bft)
16.03.2015 06:06 0,7 C -1,1 C 93 % 1023,2 hPa 0,0 l/m 0 min 0 min 0 W/m 8,4 km/h (2 Bft)
16.03.2015 06:08 0,7 C -1,1 C 93 % 1023,1 hPa 0,0 l/m 0 min 0 min 0 W/m 6,3 km/h (2 Bft)
16.03.2015 06:10 0,7 C -1,1 C 93 % 1023,2 hPa 0,0 l/m 0 min 0 min 0 W/m 8,4 km/h (2 Bft)
16.03.2015 06:12 0,7 C -1,1 C 93 % 1023,1 hPa 0,0 l/m 0 min 0 min 0 W/m 8,4 km/h (2 Bft)
16.03.2015 06:14 0,7 C -1,1 C 93 % 1023,1 hPa 0,0 l/m 0 min 0 min 0 W/m 6,3 km/h (2 Bft)
16.03.2015 06:16 0,7 C -1,1 C 94 % 1023,2 hPa 0,0 l/m 0 min 0 min 0 W/m 8,4 km/h (2 Bft)
16.03.2015 06:18 0,7 C -1,1 C 94 % 1023,1 hPa 0,0 l/m 0 min 0 min 0 W/m 10,5 km/h (2 Bft)
16.03.2015 06:20 0,7 C -1,1 C 94 % 1023,2 hPa 0,0 l/m 0 min 0 min 0 W/m 6,3 km/h (2 Bft)
16.03.2015 06:22 0,7 C -1,1 C 94 % 1023,2 hPa 0,0 l/m 0 min 0 min 0 W/m 8,4 km/h (2 Bft)
16.03.2015 06:24 0,7 C -1,1 C 94 % 1023,2 hPa 0,0 l/m 0 min 0 min 0 W/m 8,4 km/h (2 Bft)
16.03.2015 06:26 0,7 C -1,1 C 94 % 1023,2 hPa 0,0 l/m 0 min 0 min 0 W/m 8,4 km/h (2 Bft)
16.03.2015 06:28 0,7 C -1,1 C 94 % 1023,1 hPa 0,0 l/m 0 min 0 min 0 W/m 6,3 km/h (2 Bft)
16.03.2015 06:30 0,7 C -1,1 C 94 % 1023,1 hPa 0,0 l/m 0 min 0 min 0 W/m 10,5 km/h (2 Bft)
16.03.2015 06:32 0,7 C -1,1 C 94 % 1023,1 hPa 0,0 l/m 0 min 0 min 0 W/m 10,5 km/h (2 Bft)
16.03.2015 06:34 0,7 C -1,1 C 94 % 1023,1 hPa 0,0 l/m 0 min 0 min 0 W/m 8,4 km/h (2 Bft)
16.03.2015 06:36 0,7 C -1,1 C 94 % 1023,1 hPa 0,0 l/m 0 min 0 min 0 W/m 8,4 km/h (2 Bft)
16.03.2015 06:38 0,8 C -1,1 C 94 % 1023,1 hPa 0,0 l/m 0 min 0 min 0 W/m 8,4 km/h (2 Bft)
16.03.2015 06:40 0,8 C -1,1 C 94 % 1023,1 hPa 0,0 l/m 0 min 0 min 0 W/m 10,5 km/h (2 Bft)
16.03.2015 06:42 0,8 C -1,1 C 94 % 1023,1 hPa 0,0 l/m 0 min 0 min 0 W/m 10,5 km/h (2 Bft)
16.03.2015 06:44 0,8 C -1,1 C 94 % 1023,1 hPa 0,0 l/m 0 min 0 min 4 W/m 8,4 km/h (2 Bft)
16.03.2015 06:46 0,8 C -0,6 C 94 % 1023,1 hPa 0,0 l/m 0 min 0 min 5 W/m 8,4 km/h (2 Bft)
16.03.2015 06:48 0,8 C -1,1 C 94 % 1023,2 hPa 0,0 l/m 0 min 0 min 5 W/m 6,3 km/h (2 Bft)
16.03.2015 06:50 0,8 C -1,1 C 94 % 1023,2 hPa 0,0 l/m 0 min 0 min 7 W/m 8,4 km/h (2 Bft)
16.03.2015 06:52 0,8 C -1,1 C 94 % 1023,2 hPa 0,0 l/m 0 min 0 min 8 W/m 6,3 km/h (2 Bft)
16.03.2015 06:54 0,8 C -1,1 C 94 % 1023,2 hPa 0,0 l/m 0 min 0 min 9 W/m 6,3 km/h (2 Bft)
16.03.2015 06:56 0,8 C -1,1 C 94 % 1023,2 hPa 0,0 l/m 0 min 0 min 10 W/m 6,3 km/h (2 Bft)
16.03.2015 06:58 0,8 C -1,1 C 94 % 1023,2 hPa 0,0 l/m 2 min 0 min 11 W/m 6,3 km/h (2 Bft)
16.03.2015 07:00 0,8 C -1,1 C 94 % 1023,2 hPa 0,0 l/m 2 min 0 min 12 W/m 8,4 km/h (2 Bft)
16.03.2015 07:02 0,8 C -0,6 C 94 % 1023,2 hPa 0,0 l/m 2 min 0 min 15 W/m 10,5 km/h (2 Bft)
16.03.2015 07:04 0,8 C -0,6 C 94 % 1023,2 hPa 0,0 l/m 2 min 0 min 18 W/m 14,6 km/h (3 Bft)
16.03.2015 07:06 0,8 C -0,6 C 94 % 1023,2 hPa 0,0 l/m 2 min 0 min 20 W/m 8,4 km/h (2 Bft)
16.03.2015 07:08 0,8 C -0,6 C 94 % 1023,2 hPa 0,0 l/m 2 min 0 min 23 W/m 6,3 km/h (2 Bft)
16.03.2015 07:10 0,8 C -0,6 C 94 % 1023,2 hPa 0,0 l/m 2 min 0 min 25 W/m 8,4 km/h (2 Bft)
16.03.2015 07:12 0,8 C -0,6 C 94 % 1023,3 hPa 0,0 l/m 2 min 0 min 27 W/m 10,5 km/h (2 Bft)
16.03.2015 07:14 0,8 C -0,6 C 94 % 1023,2 hPa 0,0 l/m 2 min 0 min 30 W/m 8,4 km/h (2 Bft)
16.03.2015 07:16 0,8 C -0,6 C 94 % 1023,2 hPa 0,0 l/m 2 min 0 min 32 W/m 8,4 km/h (2 Bft)
16.03.2015 07:18 0,8 C -0,6 C 94 % 1023,2 hPa 0,0 l/m 2 min 0 min 35 W/m 14,6 km/h (3 Bft)
16.03.2015 07:20 0,9 C -0,6 C 95 % 1023,2 hPa 0,0 l/m 2 min 0 min 38 W/m 14,6 km/h (3 Bft)
16.03.2015 07:22 0,9 C -0,6 C 95 % 1023,2 hPa 0,0 l/m 2 min 0 min 40 W/m 10,5 km/h (2 Bft)
16.03.2015 07:24 0,9 C -0,6 C 95 % 1023,2 hPa 0,0 l/m 2 min 0 min 43 W/m 10,5 km/h (2 Bft)
16.03.2015 07:26 0,9 C 0,0 C 95 % 1023,0 hPa 0,0 l/m 2 min 0 min 46 W/m 10,5 km/h (2 Bft)
16.03.2015 07:28 0,9 C 0,0 C 95 % 1023,1 hPa 0,0 l/m 2 min 0 min 47 W/m 12,6 km/h (3 Bft)
16.03.2015 07:30 1,1 C 0,0 C 95 % 1023,0 hPa 0,0 l/m 2 min 0 min 51 W/m 10,5 km/h (2 Bft)
16.03.2015 07:32 1,1 C 0,0 C 95 % 1023,2 hPa 0,0 l/m 2 min 0 min 53 W/m 12,6 km/h (3 Bft)
16.03.2015 07:34 1,2 C 0,0 C 95 % 1023,2 hPa 0,0 l/m 2 min 0 min 52 W/m 10,5 km/h (2 Bft)
16.03.2015 07:36 1,2 C 0,0 C 95 % 1023,2 hPa 0,0 l/m 0 min 0 min 50 W/m 10,5 km/h (2 Bft)
16.03.2015 07:38 1,2 C 0,0 C 95 % 1023,2 hPa 0,0 l/m 0 min 0 min 50 W/m 14,6 km/h (3 Bft)
16.03.2015 07:40 1,3 C 0,0 C 95 % 1023,2 hPa 0,0 l/m 0 min 0 min 54 W/m 10,5 km/h (2 Bft)
16.03.2015 07:42 1,3 C 0,0 C 95 % 1023,2 hPa 0,0 l/m 2 min 0 min 59 W/m 10,5 km/h (2 Bft)
16.03.2015 07:44 1,3 C 0,6 C 95 % 1023,2 hPa 0,0 l/m 2 min 0 min 67 W/m 6,3 km/h (2 Bft)
16.03.2015 07:46 1,4 C 0,6 C 95 % 1023,2 hPa 0,0 l/m 2 min 0 min 70 W/m 12,6 km/h (3 Bft)
16.03.2015 07:48 1,4 C 0,6 C 95 % 1023,2 hPa 0,0 l/m 2 min 0 min 72 W/m 10,5 km/h (2 Bft)
16.03.2015 07:50 1,4 C 0,6 C 95 % 1023,1 hPa 0,0 l/m 2 min 0 min 77 W/m 12,6 km/h (3 Bft)
16.03.2015 07:52 1,5 C 0,6 C 95 % 1023,1 hPa 0,0 l/m 2 min 0 min 87 W/m 10,5 km/h (2 Bft)
16.03.2015 07:54 1,6 C 0,6 C 95 % 1023,0 hPa 0,0 l/m 2 min 0 min 94 W/m 14,6 km/h (3 Bft)
16.03.2015 07:56 1,6 C 0,6 C 95 % 1023,1 hPa 0,0 l/m 2 min 0 min 108 W/m 14,6 km/h (3 Bft)
16.03.2015 07:58 1,6 C 0,6 C 95 % 1023,0 hPa 0,0 l/m 2 min 0 min 112 W/m 12,6 km/h (3 Bft)
16.03.2015 08:00 1,7 C 0,6 C 95 % 1023,0 hPa 0,0 l/m 2 min 0 min 114 W/m 14,6 km/h (3 Bft)
16.03.2015 08:02 1,7 C 1,1 C 95 % 1023,1 hPa 0,0 l/m 2 min 0 min 120 W/m 16,7 km/h (3 Bft)
16.03.2015 08:04 1,8 C 1,1 C 96 % 1023,1 hPa 0,0 l/m 2 min 0 min 131 W/m 12,6 km/h (3 Bft)
16.03.2015 08:06 1,8 C 1,1 C 96 % 1023,1 hPa 0,0 l/m 2 min 0 min 135 W/m 12,6 km/h (3 Bft)
16.03.2015 08:08 1,9 C 1,1 C 96 % 1023,1 hPa 0,2 l/m 2 min 0 min 139 W/m 14,6 km/h (3 Bft)
16.03.2015 08:10 1,9 C 1,1 C 96 % 1023,1 hPa 0,0 l/m 2 min 0 min 143 W/m 10,5 km/h (2 Bft)
16.03.2015 08:12 2,0 C 1,1 C 96 % 1023,1 hPa 0,0 l/m 2 min 0 min 145 W/m 12,6 km/h (3 Bft)
16.03.2015 08:14 2,0 C 1,1 C 96 % 1023,1 hPa 0,0 l/m 2 min 0 min 151 W/m 12,6 km/h (3 Bft)
16.03.2015 08:16 2,1 C 1,1 C 96 % 1023,1 hPa 0,0 l/m 2 min 0 min 161 W/m 14,6 km/h (3 Bft)
16.03.2015 08:18 2,1 C 1,7 C 96 % 1023,0 hPa 0,0 l/m 2 min 0 min 153 W/m 8,4 km/h (2 Bft)
16.03.2015 08:20 2,2 C 1,7 C 96 % 1023,0 hPa 0,0 l/m 2 min 0 min 158 W/m 14,6 km/h (3 Bft)
16.03.2015 08:22 2,2 C 1,7 C 96 % 1023,0 hPa 0,0 l/m 2 min 0 min 174 W/m 14,6 km/h (3 Bft)
16.03.2015 08:24 2,2 C 1,7 C 96 % 1023,0 hPa 0,0 l/m 2 min 0 min 173 W/m 14,6 km/h (3 Bft)
16.03.2015 08:26 2,3 C 1,7 C 96 % 1022,9 hPa 0,0 l/m 2 min 0 min 158 W/m 12,6 km/h (3 Bft)
16.03.2015 08:28 2,3 C 1,7 C 96 % 1023,0 hPa 0,0 l/m 2 min 0 min 171 W/m 14,6 km/h (3 Bft)
16.03.2015 08:30 2,4 C 1,7 C 96 % 1023,0 hPa 0,0 l/m 2 min 0 min 180 W/m 14,6 km/h (3 Bft)
16.03.2015 08:32 2,4 C 1,7 C 96 % 1023,0 hPa 0,0 l/m 2 min 0 min 183 W/m 16,7 km/h (3 Bft)
16.03.2015 08:34 2,5 C 2,2 C 96 % 1022,9 hPa 0,0 l/m 2 min 0 min 191 W/m 16,7 km/h (3 Bft)
16.03.2015 08:36 2,6 C 2,2 C 96 % 1022,9 hPa 0,0 l/m 2 min 0 min 190 W/m 18,8 km/h (3 Bft)
16.03.2015 08:38 2,7 C 2,2 C 96 % 1023,0 hPa 0,0 l/m 2 min 0 min 208 W/m 18,8 km/h (3 Bft)
16.03.2015 08:40 2,7 C 2,2 C 96 % 1023,0 hPa 0,0 l/m 2 min 0 min 207 W/m 10,5 km/h (2 Bft)
16.03.2015 08:42 2,8 C 2,2 C 96 % 1023,0 hPa 0,0 l/m 2 min 0 min 226 W/m 6,3 km/h (2 Bft)
16.03.2015 08:44 2,9 C 2,2 C 96 % 1023,1 hPa 0,0 l/m 2 min 0 min 217 W/m 12,6 km/h (3 Bft)
16.03.2015 08:46 2,9 C 2,2 C 96 % 1023,1 hPa 0,0 l/m 2 min 0 min 224 W/m 12,6 km/h (3 Bft)
16.03.2015 08:48 2,9 C 2,8 C 96 % 1023,1 hPa 0,0 l/m 2 min 0 min 222 W/m 10,5 km/h (2 Bft)
16.03.2015 08:50 3,1 C 2,8 C 96 % 1023,1 hPa 0,0 l/m 2 min 0 min 229 W/m 14,6 km/h (3 Bft)
16.03.2015 08:52 3,1 C 2,8 C 96 % 1023,1 hPa 0,0 l/m 2 min 0 min 225 W/m 10,5 km/h (2 Bft)
16.03.2015 08:54 3,2 C 2,8 C 96 % 1023,1 hPa 0,0 l/m 2 min 0 min 234 W/m 10,5 km/h (2 Bft)
16.03.2015 08:56 3,2 C 2,8 C 96 % 1023,1 hPa 0,0 l/m 2 min 0 min 226 W/m 14,6 km/h (3 Bft)
16.03.2015 08:58 3,3 C 2,8 C 96 % 1023,1 hPa 0,0 l/m 2 min 0 min 222 W/m 12,6 km/h (3 Bft)
16.03.2015 09:00 3,4 C 3,3 C 96 % 1023,0 hPa 0,0 l/m 2 min 0 min 217 W/m 10,5 km/h (2 Bft)
16.03.2015 09:02 3,5 C 3,3 C 96 % 1023,0 hPa 0,0 l/m 2 min 0 min 278 W/m 12,6 km/h (3 Bft)
16.03.2015 09:04 3,6 C 3,3 C 96 % 1023,1 hPa 0,0 l/m 2 min 0 min 321 W/m 10,5 km/h (2 Bft)
16.03.2015 09:06 3,7 C 3,3 C 96 % 1023,0 hPa 0,0 l/m 2 min 0 min 333 W/m 14,6 km/h (3 Bft)
16.03.2015 09:08 3,7 C 3,9 C 97 % 1023,0 hPa 0,0 l/m 2 min 0 min 350 W/m 16,7 km/h (3 Bft)
16.03.2015 09:10 3,9 C 3,9 C 97 % 1023,0 hPa 0,0 l/m 2 min 0 min 361 W/m 14,6 km/h (3 Bft)
16.03.2015 09:12 4,1 C 3,9 C 96 % 1023,0 hPa 0,0 l/m 2 min 0 min 361 W/m 18,8 km/h (3 Bft)
16.03.2015 09:14 4,2 C 3,9 C 97 % 1023,0 hPa 0,0 l/m 2 min 0 min 356 W/m 14,6 km/h (3 Bft)
16.03.2015 09:16 4,3 C 3,9 C 97 % 1023,0 hPa 0,0 l/m 2 min 0 min 333 W/m 16,7 km/h (3 Bft)
16.03.2015 09:18 4,4 C 4,4 C 97 % 1023,0 hPa 0,0 l/m 2 min 0 min 309 W/m 18,8 km/h (3 Bft)
16.03.2015 09:20 4,5 C 4,4 C 97 % 1023,0 hPa 0,0 l/m 2 min 0 min 289 W/m 16,7 km/h (3 Bft)
16.03.2015 09:22 4,6 C 4,4 C 97 % 1023,0 hPa 0,0 l/m 2 min 0 min 259 W/m 14,6 km/h (3 Bft)
16.03.2015 09:24 4,7 C 4,4 C 97 % 1023,0 hPa 0,0 l/m 2 min 0 min 256 W/m 12,6 km/h (3 Bft)
16.03.2015 09:26 4,8 C 4,4 C 97 % 1023,0 hPa 0,0 l/m 2 min 0 min 267 W/m 10,5 km/h (2 Bft)
16.03.2015 09:28 4,9 C 4,4 C 97 % 1023,0 hPa 0,0 l/m 2 min 0 min 275 W/m 16,7 km/h (3 Bft)
16.03.2015 09:30 4,9 C 4,4 C 97 % 1023,0 hPa 0,0 l/m 2 min 0 min 283 W/m 14,6 km/h (3 Bft)
16.03.2015 09:32 5,1 C 4,4 C 96 % 1023,0 hPa 0,0 l/m 2 min 0 min 281 W/m 16,7 km/h (3 Bft)
16.03.2015 09:34 5,1 C 4,4 C 97 % 1023,0 hPa 0,0 l/m 2 min 0 min 276 W/m 10,5 km/h (2 Bft)
16.03.2015 09:36 5,2 C 4,4 C 96 % 1023,0 hPa 0,0 l/m 2 min 0 min 336 W/m 14,6 km/h (3 Bft)
16.03.2015 09:38 5,3 C 5,0 C 96 % 1023,0 hPa 0,0 l/m 2 min 0 min 383 W/m 12,6 km/h (3 Bft)
16.03.2015 09:40 5,4 C 5,0 C 96 % 1023,0 hPa 0,0 l/m 2 min 0 min 435 W/m 16,7 km/h (3 Bft)
16.03.2015 09:42 5,6 C 5,0 C 96 % 1023,0 hPa 0,0 l/m 2 min 0 min 438 W/m 12,6 km/h (3 Bft)
16.03.2015 09:44 5,7 C 5,6 C 96 % 1023,0 hPa 0,0 l/m 2 min 0 min 444 W/m 14,6 km/h (3 Bft)
16.03.2015 09:46 5,8 C 5,6 C 95 % 1023,0 hPa 0,0 l/m 2 min 0 min 441 W/m 16,7 km/h (3 Bft)
16.03.2015 09:48 5,9 C 5,6 C 95 % 1023,0 hPa 0,0 l/m 2 min 0 min 389 W/m 12,6 km/h (3 Bft)
16.03.2015 09:50 6,0 C 5,6 C 95 % 1023,0 hPa 0,0 l/m 2 min 0 min 400 W/m 14,6 km/h (3 Bft)
16.03.2015 09:52 6,2 C 5,6 C 94 % 1023,0 hPa 0,0 l/m 2 min 0 min 430 W/m 16,7 km/h (3 Bft)
16.03.2015 09:54 6,3 C 6,1 C 94 % 1023,0 hPa 0,0 l/m 2 min 0 min 429 W/m 16,7 km/h (3 Bft)
16.03.2015 09:56 6,4 C 6,1 C 93 % 1022,9 hPa 0,0 l/m 2 min 0 min 433 W/m 14,6 km/h (3 Bft)
16.03.2015 09:58 6,6 C 6,1 C 92 % 1022,9 hPa 0,0 l/m 2 min 0 min 438 W/m 14,6 km/h (3 Bft)
16.03.2015 10:00 6,7 C 6,1 C 91 % 1022,9 hPa 0,0 l/m 2 min 0 min 402 W/m 10,5 km/h (2 Bft)
16.03.2015 10:02 6,8 C 6,1 C 90 % 1022,9 hPa 0,0 l/m 2 min 0 min 436 W/m 14,6 km/h (3 Bft)
16.03.2015 10:04 6,9 C 6,1 C 89 % 1022,9 hPa 0,0 l/m 2 min 0 min 431 W/m 14,6 km/h (3 Bft)
16.03.2015 10:06 7,1 C 6,1 C 88 % 1022,9 hPa 0,0 l/m 2 min 0 min 440 W/m 16,7 km/h (3 Bft)
16.03.2015 10:08 7,2 C 6,7 C 87 % 1022,9 hPa 0,0 l/m 2 min 0 min 453 W/m 16,7 km/h (3 Bft)
16.03.2015 10:10 7,3 C 6,7 C 86 % 1022,9 hPa 0,0 l/m 2 min 0 min 448 W/m 18,8 km/h (3 Bft)
16.03.2015 10:12 7,4 C 6,1 C 85 % 1022,9 hPa 0,0 l/m 2 min 0 min 441 W/m 23,0 km/h (4 Bft)
16.03.2015 10:14 7,5 C 6,1 C 83 % 1022,9 hPa 0,0 l/m 2 min 0 min 439 W/m 16,7 km/h (3 Bft)
16.03.2015 10:16 7,6 C 6,1 C 82 % 1022,9 hPa 0,0 l/m 2 min 0 min 451 W/m 16,7 km/h (3 Bft)
16.03.2015 10:18 7,7 C 6,1 C 82 % 1022,8 hPa 0,0 l/m 2 min 0 min 448 W/m 18,8 km/h (3 Bft)
16.03.2015 10:20 7,8 C 6,1 C 81 % 1022,8 hPa 0,0 l/m 2 min 0 min 455 W/m 18,8 km/h (3 Bft)
16.03.2015 10:22 7,8 C 6,7 C 80 % 1022,8 hPa 0,0 l/m 2 min 0 min 459 W/m 14,6 km/h (3 Bft)
16.03.2015 10:24 7,9 C 6,7 C 80 % 1022,8 hPa 0,0 l/m 2 min 0 min 466 W/m 18,8 km/h (3 Bft)
16.03.2015 10:26 8,0 C 6,7 C 80 % 1022,8 hPa 0,0 l/m 2 min 0 min 467 W/m 14,6 km/h (3 Bft)
16.03.2015 10:28 8,1 C 6,7 C 79 % 1022,8 hPa 0,0 l/m 2 min 0 min 471 W/m 10,5 km/h (2 Bft)
16.03.2015 10:30 8,2 C 6,7 C 79 % 1022,8 hPa 0,0 l/m 2 min 0 min 476 W/m 14,6 km/h (3 Bft)
16.03.2015 10:32 8,2 C 6,7 C 79 % 1022,8 hPa 0,0 l/m 2 min 0 min 472 W/m 12,6 km/h (3 Bft)
16.03.2015 10:34 8,3 C 6,7 C 78 % 1022,8 hPa 0,0 l/m 2 min 0 min 477 W/m 16,7 km/h (3 Bft)
16.03.2015 10:36 8,4 C 6,7 C 78 % 1022,8 hPa 0,0 l/m 2 min 0 min 479 W/m 20,9 km/h (4 Bft)
16.03.2015 10:38 8,4 C 6,7 C 78 % 1022,8 hPa 0,0 l/m 2 min 0 min 486 W/m 10,5 km/h (2 Bft)
16.03.2015 10:40 8,5 C 6,7 C 78 % 1022,8 hPa 0,0 l/m 2 min 0 min 490 W/m 10,5 km/h (2 Bft)
16.03.2015 10:42 8,6 C 7,2 C 78 % 1022,9 hPa 0,0 l/m 2 min 0 min 496 W/m 20,9 km/h (4 Bft)
16.03.2015 10:44 8,7 C 7,2 C 77 % 1022,8 hPa 0,0 l/m 2 min 0 min 493 W/m 20,9 km/h (4 Bft)
16.03.2015 10:46 8,8 C 7,2 C 77 % 1022,8 hPa 0,0 l/m 2 min 0 min 495 W/m 16,7 km/h (3 Bft)
16.03.2015 10:48 8,8 C 7,2 C 77 % 1022,8 hPa 0,0 l/m 2 min 0 min 500 W/m 18,8 km/h (3 Bft)
16.03.2015 10:50 8,9 C 7,2 C 76 % 1022,8 hPa 0,0 l/m 2 min 0 min 500 W/m 10,5 km/h (2 Bft)
16.03.2015 10:52 9,0 C 7,2 C 76 % 1022,7 hPa 0,0 l/m 2 min 0 min 515 W/m 10,5 km/h (2 Bft)
16.03.2015 10:54 9,1 C 7,2 C 76 % 1022,7 hPa 0,0 l/m 2 min 0 min 521 W/m 8,4 km/h (2 Bft)
16.03.2015 10:56 9,1 C 7,8 C 75 % 1022,7 hPa 0,0 l/m 2 min 0 min 528 W/m 14,6 km/h (3 Bft)
16.03.2015 10:58 9,2 C 7,8 C 75 % 1022,7 hPa 0,0 l/m 2 min 0 min 535 W/m 14,6 km/h (3 Bft)
16.03.2015 11:00 9,2 C 7,8 C 76 % 1022,6 hPa 0,0 l/m 2 min 0 min 539 W/m 10,5 km/h (2 Bft)
16.03.2015 11:02 9,3 C 7,8 C 75 % 1022,7 hPa 0,0 l/m 2 min 0 min 542 W/m 10,5 km/h (2 Bft)
16.03.2015 11:04 9,4 C 8,3 C 75 % 1022,7 hPa 0,0 l/m 2 min 0 min 524 W/m 10,5 km/h (2 Bft)
16.03.2015 11:06 9,5 C 7,8 C 75 % 1022,7 hPa 0,0 l/m 2 min 0 min 474 W/m 14,6 km/h (3 Bft)
16.03.2015 11:08 9,6 C 7,8 C 75 % 1022,7 hPa 0,0 l/m 2 min 0 min 464 W/m 8,4 km/h (2 Bft)
16.03.2015 11:10 9,7 C 7,8 C 75 % 1022,7 hPa 0,0 l/m 2 min 0 min 439 W/m 10,5 km/h (2 Bft)
16.03.2015 11:12 9,7 C 8,3 C 75 % 1022,6 hPa 0,0 l/m 2 min 0 min 496 W/m 8,4 km/h (2 Bft)
16.03.2015 11:14 9,8 C 8,3 C 74 % 1022,7 hPa 0,0 l/m 2 min 0 min 491 W/m 12,6 km/h (3 Bft)
16.03.2015 11:16 9,9 C 7,8 C 73 % 1022,7 hPa 0,0 l/m 2 min 0 min 331 W/m 10,5 km/h (2 Bft)
16.03.2015 11:18 9,9 C 7,8 C 72 % 1022,6 hPa 0,0 l/m 2 min 0 min 312 W/m 10,5 km/h (2 Bft)
16.03.2015 11:20 9,9 C 7,8 C 71 % 1022,7 hPa 0,0 l/m 2 min 0 min 329 W/m 6,3 km/h (2 Bft)
16.03.2015 11:22 9,9 C 7,8 C 71 % 1022,7 hPa 0,0 l/m 2 min 0 min 384 W/m 18,8 km/h (3 Bft)
16.03.2015 11:24 9,9 C 7,8 C 70 % 1022,7 hPa 0,0 l/m 2 min 0 min 452 W/m 16,7 km/h (3 Bft)
16.03.2015 11:26 10,0 C 8,3 C 70 % 1022,7 hPa 0,0 l/m 2 min 0 min 498 W/m 12,6 km/h (3 Bft)
16.03.2015 11:28 10,0 C 8,3 C 69 % 1022,7 hPa 0,0 l/m 2 min 0 min 540 W/m 14,6 km/h (3 Bft)
16.03.2015 11:30 10,1 C 8,9 C 70 % 1022,7 hPa 0,0 l/m 2 min 0 min 573 W/m 20,9 km/h (4 Bft)
16.03.2015 11:32 10,1 C 8,9 C 69 % 1022,7 hPa 0,0 l/m 2 min 0 min 532 W/m 16,7 km/h (3 Bft)
16.03.2015 11:34 10,2 C 8,9 C 69 % 1022,6 hPa 0,0 l/m 2 min 0 min 522 W/m 18,8 km/h (3 Bft)
16.03.2015 11:36 10,2 C 8,9 C 68 % 1022,6 hPa 0,0 l/m 2 min 0 min 517 W/m 16,7 km/h (3 Bft)
16.03.2015 11:38 10,3 C 9,4 C 68 % 1022,6 hPa 0,0 l/m 2 min 0 min 531 W/m 14,6 km/h (3 Bft)
16.03.2015 11:40 10,3 C 9,4 C 67 % 1022,6 hPa 0,0 l/m 2 min 0 min 559 W/m 23,0 km/h (4 Bft)
16.03.2015 11:42 10,3 C 9,4 C 67 % 1022,6 hPa 0,0 l/m 2 min 0 min 545 W/m 23,0 km/h (4 Bft)
16.03.2015 11:44 10,4 C 9,4 C 68 % 1022,5 hPa 0,0 l/m 2 min 0 min 554 W/m 14,6 km/h (3 Bft)
16.03.2015 11:46 10,4 C 9,4 C 68 % 1022,5 hPa 0,0 l/m 2 min 0 min 527 W/m 12,6 km/h (3 Bft)
16.03.2015 11:48 10,5 C 9,4 C 67 % 1022,5 hPa 0,0 l/m 2 min 0 min 472 W/m 10,5 km/h (2 Bft)
16.03.2015 11:50 10,6 C 9,4 C 68 % 1022,5 hPa 0,0 l/m 2 min 0 min 529 W/m 8,4 km/h (2 Bft)
16.03.2015 11:52 10,6 C 10,0 C 68 % 1022,6 hPa 0,0 l/m 2 min 0 min 597 W/m 14,6 km/h (3 Bft)
16.03.2015 11:54 10,7 C 10,0 C 68 % 1022,6 hPa 0,0 l/m 2 min 0 min 603 W/m 14,6 km/h (3 Bft)
16.03.2015 11:56 10,7 C 10,0 C 67 % 1022,6 hPa 0,0 l/m 2 min 0 min 595 W/m 12,6 km/h (3 Bft)
16.03.2015 11:58 10,8 C 10,0 C 67 % 1022,6 hPa 0,0 l/m 2 min 0 min 614 W/m 8,4 km/h (2 Bft)
16.03.2015 12:00 10,9 C 10,0 C 68 % 1022,6 hPa 0,0 l/m 2 min 0 min 614 W/m 14,6 km/h (3 Bft)
16.03.2015 12:02 11,0 C 9,4 C 67 % 1022,7 hPa 0,0 l/m 2 min 0 min 618 W/m 16,7 km/h (3 Bft)
16.03.2015 12:06 11,2 C 10,0 C 66 % 1022,6 hPa 0,0 l/m 2 min 0 min 613 W/m 10,5 km/h (2 Bft)
16.03.2015 12:08 11,3 C 10,0 C 66 % 1022,6 hPa 0,0 l/m 2 min 0 min 608 W/m 16,7 km/h (3 Bft)
16.03.2015 12:10 11,4 C 10,0 C 66 % 1022,6 hPa 0,0 l/m 2 min 0 min 601 W/m 12,6 km/h (3 Bft)
16.03.2015 12:12 11,4 C 10,0 C 65 % 1022,6 hPa 0,0 l/m 2 min 0 min 597 W/m 14,6 km/h (3 Bft)
16.03.2015 12:14 11,5 C 10,0 C 65 % 1022,6 hPa 0,0 l/m 2 min 0 min 596 W/m 14,6 km/h (3 Bft)
16.03.2015 12:16 11,6 C 10,0 C 65 % 1022,5 hPa 0,0 l/m 2 min 0 min 594 W/m 12,6 km/h (3 Bft)
16.03.2015 12:18 11,6 C 10,0 C 64 % 1022,5 hPa 0,0 l/m 2 min 0 min 594 W/m 14,6 km/h (3 Bft)
16.03.2015 12:20 11,7 C 10,0 C 64 % 1022,6 hPa 0,0 l/m 2 min 0 min 595 W/m 12,6 km/h (3 Bft)
16.03.2015 12:22 11,7 C 10,0 C 64 % 1022,5 hPa 0,0 l/m 2 min 0 min 594 W/m 12,6 km/h (3 Bft)
16.03.2015 12:24 11,8 C 10,0 C 64 % 1022,5 hPa 0,0 l/m 2 min 0 min 590 W/m 14,6 km/h (3 Bft)
16.03.2015 12:26 11,9 C 10,0 C 64 % 1022,5 hPa 0,0 l/m 2 min 0 min 589 W/m 12,6 km/h (3 Bft)
16.03.2015 12:28 11,9 C 10,0 C 63 % 1022,5 hPa 0,0 l/m 2 min 0 min 589 W/m 12,6 km/h (3 Bft)
16.03.2015 12:30 11,9 C 10,0 C 63 % 1022,5 hPa 0,0 l/m 2 min 0 min 586 W/m 10,5 km/h (2 Bft)
16.03.2015 12:32 12,0 C 10,0 C 63 % 1022,4 hPa 0,0 l/m 2 min 0 min 586 W/m 6,3 km/h (2 Bft)
16.03.2015 12:34 12,1 C 10,0 C 63 % 1022,4 hPa 0,0 l/m 2 min 0 min 582 W/m 14,6 km/h (3 Bft)
16.03.2015 12:36 12,1 C 10,0 C 62 % 1022,5 hPa 0,0 l/m 2 min 0 min 584 W/m 12,6 km/h (3 Bft)
16.03.2015 12:38 12,2 C 10,0 C 62 % 1022,5 hPa 0,0 l/m 2 min 0 min 578 W/m 14,6 km/h (3 Bft)
16.03.2015 12:40 12,2 C 10,0 C 62 % 1022,5 hPa 0,0 l/m 2 min 0 min 574 W/m 12,6 km/h (3 Bft)
16.03.2015 12:42 12,2 C 10,0 C 63 % 1022,5 hPa 0,0 l/m 2 min 0 min 573 W/m 10,5 km/h (2 Bft)
16.03.2015 12:44 12,2 C 10,0 C 63 % 1022,4 hPa 0,0 l/m 2 min 0 min 590 W/m 8,4 km/h (2 Bft)
16.03.2015 12:46 12,2 C 10,0 C 62 % 1022,4 hPa 0,0 l/m 2 min 0 min 585 W/m 14,6 km/h (3 Bft)
16.03.2015 12:48 12,2 C 10,6 C 64 % 1022,4 hPa 0,0 l/m 2 min 0 min 593 W/m 18,8 km/h (3 Bft)
16.03.2015 12:50 12,2 C 10,6 C 64 % 1022,4 hPa 0,0 l/m 2 min 0 min 585 W/m 16,7 km/h (3 Bft)
16.03.2015 12:52 12,2 C 10,6 C 64 % 1022,4 hPa 0,0 l/m 2 min 0 min 580 W/m 12,6 km/h (3 Bft)
16.03.2015 12:54 12,2 C 10,6 C 63 % 1022,4 hPa 0,0 l/m 2 min 0 min 574 W/m 10,5 km/h (2 Bft)
16.03.2015 12:56 12,2 C 10,0 C 62 % 1022,4 hPa 0,0 l/m 2 min 0 min 572 W/m 8,4 km/h (2 Bft)
16.03.2015 12:58 12,1 C 10,0 C 62 % 1022,3 hPa 0,0 l/m 2 min 0 min 573 W/m 10,5 km/h (2 Bft)
16.03.2015 13:00 12,1 C 10,0 C 63 % 1022,2 hPa 0,0 l/m 2 min 0 min 575 W/m 6,3 km/h (2 Bft)
16.03.2015 13:02 12,1 C 10,6 C 64 % 1022,3 hPa 0,0 l/m 2 min 0 min 578 W/m 16,7 km/h (3 Bft)
16.03.2015 13:04 12,2 C 10,6 C 63 % 1022,2 hPa 0,0 l/m 2 min 0 min 570 W/m 14,6 km/h (3 Bft)
16.03.2015 13:06 12,2 C 10,6 C 62 % 1022,3 hPa 0,0 l/m 2 min 0 min 575 W/m 16,7 km/h (3 Bft)
16.03.2015 13:08 12,3 C 10,6 C 62 % 1022,2 hPa 0,0 l/m 2 min 0 min 567 W/m 12,6 km/h (3 Bft)
16.03.2015 13:10 12,3 C 10,0 C 61 % 1022,3 hPa 0,0 l/m 2 min 0 min 561 W/m 20,9 km/h (4 Bft)
16.03.2015 13:12 12,3 C 10,0 C 62 % 1022,2 hPa 0,0 l/m 2 min 0 min 555 W/m 12,6 km/h (3 Bft)
16.03.2015 13:14 12,3 C 10,0 C 61 % 1022,2 hPa 0,0 l/m 2 min 0 min 560 W/m 10,5 km/h (2 Bft)
16.03.2015 13:16 12,3 C 10,0 C 61 % 1022,2 hPa 0,0 l/m 2 min 0 min 562 W/m 16,7 km/h (3 Bft)
16.03.2015 13:18 12,3 C 10,6 C 62 % 1022,2 hPa 0,0 l/m 2 min 0 min 566 W/m 14,6 km/h (3 Bft)
16.03.2015 13:20 12,4 C 10,6 C 63 % 1022,1 hPa 0,0 l/m 2 min 0 min 562 W/m 14,6 km/h (3 Bft)
16.03.2015 13:22 12,4 C 10,6 C 63 % 1022,2 hPa 0,0 l/m 2 min 0 min 557 W/m 20,9 km/h (4 Bft)
16.03.2015 13:24 12,4 C 10,6 C 61 % 1022,1 hPa 0,0 l/m 2 min 0 min 543 W/m 16,7 km/h (3 Bft)
16.03.2015 13:26 12,5 C 10,6 C 61 % 1022,1 hPa 0,0 l/m 2 min 0 min 541 W/m 8,4 km/h (2 Bft)
16.03.2015 13:28 12,6 C 10,6 C 61 % 1022,1 hPa 0,0 l/m 2 min 0 min 532 W/m 6,3 km/h (2 Bft)
16.03.2015 13:30 12,6 C 10,6 C 61 % 1022,1 hPa 0,0 l/m 2 min 0 min 518 W/m 16,7 km/h (3 Bft)
16.03.2015 13:32 12,6 C 10,6 C 62 % 1022,1 hPa 0,0 l/m 2 min 0 min 515 W/m 16,7 km/h (3 Bft)
16.03.2015 13:34 12,6 C 11,1 C 62 % 1022,1 hPa 0,0 l/m 2 min 0 min 526 W/m 14,6 km/h (3 Bft)
16.03.2015 13:36 12,7 C 11,1 C 62 % 1022,1 hPa 0,0 l/m 2 min 0 min 554 W/m 20,9 km/h (4 Bft)
16.03.2015 13:38 12,7 C 11,1 C 62 % 1022,1 hPa 0,0 l/m 2 min 0 min 555 W/m 12,6 km/h (3 Bft)
16.03.2015 13:40 12,7 C 11,1 C 61 % 1022,1 hPa 0,0 l/m 2 min 0 min 552 W/m 18,8 km/h (3 Bft)
16.03.2015 13:42 12,7 C 10,6 C 60 % 1022,1 hPa 0,0 l/m 2 min 0 min 548 W/m 18,8 km/h (3 Bft)
16.03.2015 13:44 12,8 C 11,1 C 60 % 1022,1 hPa 0,0 l/m 2 min 0 min 539 W/m 12,6 km/h (3 Bft)
16.03.2015 13:46 12,8 C 11,1 C 60 % 1022,0 hPa 0,0 l/m 2 min 0 min 543 W/m 10,5 km/h (2 Bft)
16.03.2015 13:48 12,8 C 11,1 C 61 % 1021,9 hPa 0,0 l/m 2 min 0 min 539 W/m 14,6 km/h (3 Bft)
16.03.2015 13:50 12,9 C 11,1 C 61 % 1021,9 hPa 0,0 l/m 2 min 0 min 537 W/m 20,9 km/h (4 Bft)
16.03.2015 13:52 12,9 C 11,7 C 62 % 1022,0 hPa 0,0 l/m 2 min 0 min 539 W/m 18,8 km/h (3 Bft)
16.03.2015 13:54 13,0 C 11,7 C 62 % 1022,0 hPa 0,0 l/m 2 min 0 min 529 W/m 14,6 km/h (3 Bft)
16.03.2015 13:56 13,1 C 11,7 C 62 % 1022,0 hPa 0,0 l/m 2 min 0 min 527 W/m 16,7 km/h (3 Bft)
16.03.2015 13:58 13,1 C 11,7 C 61 % 1022,0 hPa 0,0 l/m 2 min 0 min 521 W/m 16,7 km/h (3 Bft)
16.03.2015 14:00 13,2 C 11,7 C 60 % 1022,0 hPa 0,0 l/m 2 min 0 min 513 W/m 10,5 km/h (2 Bft)
16.03.2015 14:02 13,2 C 11,7 C 60 % 1021,9 hPa 0,0 l/m 2 min 0 min 517 W/m 14,6 km/h (3 Bft)
16.03.2015 14:04 13,3 C 11,7 C 60 % 1022,0 hPa 0,0 l/m 2 min 0 min 514 W/m 16,7 km/h (3 Bft)
16.03.2015 14:06 13,3 C 11,7 C 60 % 1021,7 hPa 0,0 l/m 2 min 0 min 516 W/m 12,6 km/h (3 Bft)
16.03.2015 14:08 13,4 C 11,7 C 60 % 1021,8 hPa 0,0 l/m 2 min 0 min 520 W/m 16,7 km/h (3 Bft)
16.03.2015 14:10 13,4 C 11,7 C 61 % 1021,7 hPa 0,0 l/m 2 min 0 min 515 W/m 18,8 km/h (3 Bft)
16.03.2015 14:12 13,5 C 11,7 C 61 % 1021,7 hPa 0,0 l/m 2 min 0 min 503 W/m 14,6 km/h (3 Bft)
16.03.2015 14:14 13,5 C 12,2 C 60 % 1021,6 hPa 0,0 l/m 2 min 0 min 501 W/m 16,7 km/h (3 Bft)
16.03.2015 14:16 13,6 C 11,7 C 59 % 1021,6 hPa 0,0 l/m 2 min 0 min 499 W/m 14,6 km/h (3 Bft)
16.03.2015 14:18 13,6 C 12,2 C 60 % 1021,6 hPa 0,0 l/m 2 min 0 min 502 W/m 18,8 km/h (3 Bft)
16.03.2015 14:20 13,7 C 12,2 C 59 % 1021,6 hPa 0,0 l/m 2 min 0 min 500 W/m 16,7 km/h (3 Bft)
16.03.2015 14:22 13,7 C 12,2 C 58 % 1021,6 hPa 0,0 l/m 2 min 0 min 492 W/m 10,5 km/h (2 Bft)
16.03.2015 14:24 13,7 C 13,3 C 59 % 1021,5 hPa 0,0 l/m 2 min 0 min 491 W/m 16,7 km/h (3 Bft)
16.03.2015 14:26 13,8 C 14,4 C 60 % 1021,5 hPa 0,0 l/m 2 min 0 min 491 W/m 10,5 km/h (2 Bft)
16.03.2015 14:28 13,8 C 15,0 C 58 % 1021,6 hPa 0,0 l/m 2 min 0 min 486 W/m 12,6 km/h (3 Bft)
16.03.2015 14:30 13,9 C 16,1 C 58 % 1021,6 hPa 0,0 l/m 2 min 0 min 483 W/m 10,5 km/h (2 Bft)
16.03.2015 14:32 13,9 C 16,1 C 59 % 1021,5 hPa 0,0 l/m 2 min 0 min 479 W/m 8,4 km/h (2 Bft)
16.03.2015 14:34 13,9 C 16,1 C 58 % 1021,5 hPa 0,0 l/m 2 min 0 min 480 W/m 6,3 km/h (2 Bft)
16.03.2015 14:36 14,0 C 16,7 C 58 % 1021,5 hPa 0,0 l/m 2 min 0 min 477 W/m 4,2 km/h (1 Bft)
16.03.2015 14:38 14,0 C 16,7 C 59 % 1021,6 hPa 0,0 l/m 2 min 0 min 475 W/m 8,4 km/h (2 Bft)
16.03.2015 14:40 14,1 C 16,1 C 58 % 1021,6 hPa 0,0 l/m 2 min 0 min 466 W/m 14,6 km/h (3 Bft)
16.03.2015 14:42 14,2 C 16,1 C 58 % 1021,6 hPa 0,0 l/m 2 min 0 min 462 W/m 14,6 km/h (3 Bft)
16.03.2015 14:44 14,2 C 16,1 C 58 % 1021,6 hPa 0,0 l/m 2 min 0 min 458 W/m 16,7 km/h (3 Bft)
16.03.2015 14:46 14,2 C 16,1 C 58 % 1021,6 hPa 0,0 l/m 2 min 0 min 454 W/m 16,7 km/h (3 Bft)
16.03.2015 14:48 14,2 C 15,0 C 57 % 1021,5 hPa 0,0 l/m 2 min 0 min 448 W/m 8,4 km/h (2 Bft)
16.03.2015 14:50 14,2 C 14,4 C 57 % 1021,5 hPa 0,0 l/m 2 min 0 min 440 W/m 8,4 km/h (2 Bft)
16.03.2015 14:52 14,2 C 14,4 C 58 % 1021,5 hPa 0,0 l/m 2 min 0 min 437 W/m 10,5 km/h (2 Bft)
16.03.2015 14:54 14,2 C 15,0 C 57 % 1021,4 hPa 0,0 l/m 2 min 0 min 434 W/m 10,5 km/h (2 Bft)
16.03.2015 14:56 14,2 C 14,4 C 58 % 1021,4 hPa 0,0 l/m 2 min 0 min 426 W/m 14,6 km/h (3 Bft)
16.03.2015 14:58 14,2 C 13,9 C 57 % 1021,4 hPa 0,0 l/m 2 min 0 min 417 W/m 16,7 km/h (3 Bft)
16.03.2015 15:00 14,2 C 12,8 C 56 % 1021,5 hPa 0,0 l/m 2 min 0 min 422 W/m 12,6 km/h (3 Bft)
16.03.2015 15:02 14,2 C 13,3 C 57 % 1021,5 hPa 0,0 l/m 2 min 0 min 420 W/m 10,5 km/h (2 Bft)
16.03.2015 15:04 14,2 C 12,8 C 57 % 1021,5 hPa 0,0 l/m 2 min 0 min 414 W/m 14,6 km/h (3 Bft)
16.03.2015 15:06 14,2 C 12,8 C 56 % 1021,5 hPa 0,0 l/m 2 min 0 min 413 W/m 10,5 km/h (2 Bft)
16.03.2015 15:08 14,2 C 12,8 C 57 % 1021,4 hPa 0,0 l/m 2 min 0 min 406 W/m 8,4 km/h (2 Bft)
16.03.2015 15:10 14,2 C 12,2 C 57 % 1021,5 hPa 0,0 l/m 2 min 0 min 398 W/m 8,4 km/h (2 Bft)
16.03.2015 15:12 14,2 C 12,2 C 57 % 1021,5 hPa 0,0 l/m 2 min 0 min 394 W/m 14,6 km/h (3 Bft)
16.03.2015 15:14 14,2 C 12,2 C 58 % 1021,5 hPa 0,0 l/m 2 min 0 min 396 W/m 20,9 km/h (4 Bft)
16.03.2015 15:16 14,2 C 12,8 C 58 % 1021,4 hPa 0,0 l/m 2 min 0 min 401 W/m 12,6 km/h (3 Bft)
16.03.2015 15:18 14,2 C 12,8 C 58 % 1021,4 hPa 0,0 l/m 2 min 0 min 396 W/m 10,5 km/h (2 Bft)
16.03.2015 15:20 14,2 C 12,2 C 57 % 1021,4 hPa 0,0 l/m 2 min 0 min 390 W/m 14,6 km/h (3 Bft)
16.03.2015 15:22 14,2 C 12,2 C 57 % 1021,4 hPa 0,0 l/m 2 min 0 min 385 W/m 14,6 km/h (3 Bft)
16.03.2015 15:24 14,2 C 12,2 C 57 % 1021,5 hPa 0,0 l/m 2 min 0 min 383 W/m 14,6 km/h (3 Bft)
16.03.2015 15:26 14,2 C 12,2 C 58 % 1021,4 hPa 0,0 l/m 2 min 0 min 380 W/m 10,5 km/h (2 Bft)
16.03.2015 15:28 14,2 C 12,2 C 57 % 1021,4 hPa 0,0 l/m 2 min 0 min 374 W/m 12,6 km/h (3 Bft)
16.03.2015 15:30 14,2 C 12,2 C 58 % 1021,4 hPa 0,0 l/m 2 min 0 min 370 W/m 14,6 km/h (3 Bft)
16.03.2015 15:32 14,2 C 12,8 C 57 % 1021,4 hPa 0,0 l/m 2 min 0 min 358 W/m 12,6 km/h (3 Bft)
16.03.2015 15:34 14,2 C 12,8 C 58 % 1021,4 hPa 0,0 l/m 2 min 0 min 350 W/m 10,5 km/h (2 Bft)
16.03.2015 15:36 14,2 C 12,8 C 59 % 1021,4 hPa 0,0 l/m 2 min 0 min 351 W/m 4,2 km/h (1 Bft)
16.03.2015 15:38 14,2 C 12,8 C 58 % 1021,4 hPa 0,0 l/m 2 min 0 min 350 W/m 8,4 km/h (2 Bft)
16.03.2015 15:40 14,2 C 12,8 C 58 % 1021,4 hPa 0,0 l/m 2 min 0 min 347 W/m 16,7 km/h (3 Bft)
16.03.2015 15:42 14,3 C 12,8 C 57 % 1021,4 hPa 0,0 l/m 2 min 0 min 339 W/m 16,7 km/h (3 Bft)
16.03.2015 15:44 14,3 C 12,2 C 57 % 1021,4 hPa 0,0 l/m 2 min 0 min 334 W/m 14,6 km/h (3 Bft)
16.03.2015 15:46 14,3 C 12,2 C 57 % 1021,4 hPa 0,0 l/m 2 min 0 min 329 W/m 8,4 km/h (2 Bft)
16.03.2015 15:48 14,3 C 12,2 C 57 % 1021,4 hPa 0,0 l/m 2 min 0 min 322 W/m 6,3 km/h (2 Bft)
16.03.2015 15:50 14,3 C 12,2 C 57 % 1021,3 hPa 0,0 l/m 2 min 0 min 318 W/m 14,6 km/h (3 Bft)
16.03.2015 15:52 14,4 C 12,2 C 56 % 1021,3 hPa 0,0 l/m 2 min 0 min 313 W/m 14,6 km/h (3 Bft)
16.03.2015 15:54 14,4 C 12,2 C 57 % 1021,3 hPa 0,0 l/m 2 min 0 min 308 W/m 16,7 km/h (3 Bft)
16.03.2015 15:56 14,4 C 12,2 C 57 % 1021,3 hPa 0,0 l/m 2 min 0 min 303 W/m 16,7 km/h (3 Bft)
16.03.2015 15:58 14,4 C 12,2 C 57 % 1021,3 hPa 0,0 l/m 2 min 0 min 301 W/m 16,7 km/h (3 Bft)
16.03.2015 16:00 14,3 C 12,2 C 57 % 1021,3 hPa 0,0 l/m 2 min 0 min 297 W/m 10,5 km/h (2 Bft)
16.03.2015 16:02 14,3 C 12,2 C 57 % 1021,3 hPa 0,0 l/m 2 min 0 min 293 W/m 8,4 km/h (2 Bft)
16.03.2015 16:04 14,3 C 12,2 C 57 % 1021,2 hPa 0,0 l/m 2 min 0 min 289 W/m 8,4 km/h (2 Bft)
16.03.2015 16:06 14,3 C 12,2 C 57 % 1021,2 hPa 0,0 l/m 2 min 0 min 284 W/m 10,5 km/h (2 Bft)
16.03.2015 16:08 14,3 C 12,2 C 57 % 1021,2 hPa 0,0 l/m 2 min 0 min 280 W/m 14,6 km/h (3 Bft)
16.03.2015 16:10 14,3 C 12,2 C 57 % 1021,2 hPa 0,0 l/m 2 min 0 min 273 W/m 12,6 km/h (3 Bft)
16.03.2015 16:12 14,3 C 12,2 C 57 % 1021,3 hPa 0,0 l/m 2 min 0 min 267 W/m 10,5 km/h (2 Bft)
16.03.2015 16:14 14,3 C 12,2 C 57 % 1021,2 hPa 0,0 l/m 2 min 0 min 263 W/m 16,7 km/h (3 Bft)
16.03.2015 16:16 14,3 C 12,2 C 58 % 1021,2 hPa 0,0 l/m 2 min 0 min 258 W/m 10,5 km/h (2 Bft)
16.03.2015 16:18 14,2 C 12,2 C 57 % 1021,3 hPa 0,0 l/m 2 min 0 min 251 W/m 8,4 km/h (2 Bft)
16.03.2015 16:20 14,2 C 12,2 C 58 % 1021,2 hPa 0,0 l/m 2 min 0 min 245 W/m 14,6 km/h (3 Bft)
16.03.2015 16:22 14,2 C 12,2 C 57 % 1021,3 hPa 0,0 l/m 2 min 0 min 241 W/m 10,5 km/h (2 Bft)
16.03.2015 16:24 14,2 C 12,2 C 57 % 1021,3 hPa 0,0 l/m 2 min 0 min 237 W/m 10,5 km/h (2 Bft)
16.03.2015 16:26 14,2 C 11,7 C 57 % 1021,3 hPa 0,0 l/m 2 min 0 min 231 W/m 6,3 km/h (2 Bft)
16.03.2015 16:28 14,2 C 11,7 C 57 % 1021,3 hPa 0,0 l/m 2 min 0 min 226 W/m 4,2 km/h (1 Bft)
16.03.2015 16:30 14,2 C 11,7 C 58 % 1021,3 hPa 0,0 l/m 2 min 0 min 221 W/m 4,2 km/h (1 Bft)
16.03.2015 16:32 14,2 C 11,7 C 58 % 1021,3 hPa 0,0 l/m 2 min 0 min 215 W/m 8,4 km/h (2 Bft)
16.03.2015 16:34 14,2 C 11,7 C 58 % 1021,3 hPa 0,0 l/m 2 min 0 min 210 W/m 6,3 km/h (2 Bft)
16.03.2015 16:36 14,2 C 11,7 C 58 % 1021,3 hPa 0,0 l/m 2 min 0 min 206 W/m 8,4 km/h (2 Bft)
16.03.2015 16:38 14,2 C 11,7 C 58 % 1021,3 hPa 0,0 l/m 2 min 0 min 200 W/m 6,3 km/h (2 Bft)
16.03.2015 16:40 14,2 C 11,7 C 58 % 1021,3 hPa 0,0 l/m 2 min 0 min 192 W/m 4,2 km/h (1 Bft)
16.03.2015 16:42 14,2 C 11,7 C 58 % 1021,3 hPa 0,0 l/m 2 min 0 min 189 W/m 4,2 km/h (1 Bft)
16.03.2015 16:44 14,2 C 11,7 C 58 % 1021,3 hPa 0,0 l/m 2 min 0 min 185 W/m 4,2 km/h (1 Bft)
16.03.2015 16:46 14,2 C 11,7 C 58 % 1021,3 hPa 0,0 l/m 2 min 0 min 175 W/m 4,2 km/h (1 Bft)
16.03.2015 16:48 14,2 C 11,7 C 57 % 1021,4 hPa 0,0 l/m 2 min 0 min 163 W/m 4,2 km/h (1 Bft)
16.03.2015 16:50 14,2 C 11,7 C 57 % 1021,4 hPa 0,0 l/m 2 min 0 min 155 W/m 2,1 km/h (1 Bft)
16.03.2015 16:52 14,2 C 11,7 C 57 % 1021,4 hPa 0,0 l/m 2 min 0 min 152 W/m 6,3 km/h (2 Bft)
16.03.2015 16:54 14,2 C 11,7 C 57 % 1021,3 hPa 0,0 l/m 2 min 0 min 148 W/m 8,4 km/h (2 Bft)
16.03.2015 16:56 14,2 C 11,7 C 57 % 1021,3 hPa 0,0 l/m 2 min 0 min 141 W/m 4,2 km/h (1 Bft)
16.03.2015 16:58 14,2 C 11,1 C 57 % 1021,3 hPa 0,0 l/m 2 min 0 min 126 W/m 6,3 km/h (2 Bft)
16.03.2015 17:00 14,2 C 11,1 C 58 % 1021,4 hPa 0,0 l/m 2 min 0 min 122 W/m 6,3 km/h (2 Bft)
16.03.2015 17:02 14,2 C 11,1 C 58 % 1021,3 hPa 0,0 l/m 2 min 0 min 128 W/m 6,3 km/h (2 Bft)
16.03.2015 17:04 14,2 C 11,1 C 58 % 1021,3 hPa 0,0 l/m 2 min 0 min 127 W/m 6,3 km/h (2 Bft)
16.03.2015 17:06 14,2 C 11,1 C 58 % 1021,4 hPa 0,0 l/m 2 min 0 min 123 W/m 6,3 km/h (2 Bft)
16.03.2015 17:08 14,2 C 10,6 C 58 % 1021,4 hPa 0,0 l/m 2 min 0 min 120 W/m 2,1 km/h (1 Bft)
16.03.2015 17:10 14,2 C 10,6 C 58 % 1021,4 hPa 0,0 l/m 2 min 0 min 116 W/m 2,1 km/h (1 Bft)
16.03.2015 17:12 14,2 C 10,6 C 58 % 1021,4 hPa 0,0 l/m 2 min 0 min 112 W/m 8,4 km/h (2 Bft)
16.03.2015 17:14 14,2 C 10,6 C 58 % 1021,4 hPa 0,0 l/m 2 min 0 min 110 W/m 10,5 km/h (2 Bft)
16.03.2015 17:16 14,2 C 10,6 C 57 % 1021,4 hPa 0,0 l/m 2 min 0 min 107 W/m 6,3 km/h (2 Bft)
16.03.2015 17:18 14,2 C 10,6 C 58 % 1021,4 hPa 0,0 l/m 2 min 0 min 103 W/m 6,3 km/h (2 Bft)
16.03.2015 17:20 14,2 C 10,6 C 58 % 1021,5 hPa 0,0 l/m 2 min 0 min 101 W/m 10,5 km/h (2 Bft)
16.03.2015 17:22 14,1 C 10,6 C 58 % 1021,5 hPa 0,0 l/m 2 min 0 min 98 W/m 10,5 km/h (2 Bft)
16.03.2015 17:24 14,1 C 10,6 C 58 % 1021,5 hPa 0,0 l/m 2 min 0 min 94 W/m 8,4 km/h (2 Bft)
16.03.2015 17:26 14,0 C 10,0 C 58 % 1021,5 hPa 0,0 l/m 2 min 0 min 88 W/m 8,4 km/h (2 Bft)
16.03.2015 17:28 13,9 C 10,0 C 58 % 1021,5 hPa 0,0 l/m 2 min 0 min 83 W/m 8,4 km/h (2 Bft)
16.03.2015 17:30 13,9 C 10,0 C 58 % 1021,5 hPa 0,0 l/m 2 min 0 min 81 W/m 10,5 km/h (2 Bft)
16.03.2015 17:32 13,8 C 10,0 C 58 % 1021,6 hPa 0,0 l/m 2 min 0 min 77 W/m 8,4 km/h (2 Bft)
16.03.2015 17:34 13,8 C 10,0 C 58 % 1021,6 hPa 0,0 l/m 2 min 0 min 72 W/m 10,5 km/h (2 Bft)
16.03.2015 17:36 13,7 C 10,0 C 59 % 1021,6 hPa 0,0 l/m 2 min 0 min 67 W/m 8,4 km/h (2 Bft)
16.03.2015 17:38 13,7 C 10,0 C 59 % 1021,6 hPa 0,0 l/m 2 min 0 min 65 W/m 8,4 km/h (2 Bft)
16.03.2015 17:40 13,6 C 9,4 C 59 % 1021,6 hPa 0,0 l/m 2 min 0 min 64 W/m 8,4 km/h (2 Bft)
16.03.2015 17:42 13,6 C 9,4 C 59 % 1021,6 hPa 0,0 l/m 2 min 0 min 61 W/m 6,3 km/h (2 Bft)
16.03.2015 17:44 13,6 C 9,4 C 59 % 1021,7 hPa 0,0 l/m 0 min 0 min 56 W/m 8,4 km/h (2 Bft)
16.03.2015 17:46 13,5 C 9,4 C 59 % 1021,7 hPa 0,0 l/m 0 min 0 min 52 W/m 10,5 km/h (2 Bft)
16.03.2015 17:48 13,4 C 9,4 C 59 % 1021,8 hPa 0,0 l/m 0 min 0 min 49 W/m 8,4 km/h (2 Bft)
16.03.2015 17:50 13,4 C 8,9 C 59 % 1021,8 hPa 0,0 l/m 0 min 0 min 47 W/m 8,4 km/h (2 Bft)
16.03.2015 17:52 13,3 C 8,9 C 59 % 1021,9 hPa 0,0 l/m 0 min 0 min 46 W/m 12,6 km/h (3 Bft)
16.03.2015 17:54 13,3 C 8,9 C 60 % 1021,9 hPa 0,0 l/m 0 min 0 min 42 W/m 10,5 km/h (2 Bft)
16.03.2015 17:56 13,2 C 8,9 C 60 % 1022,0 hPa 0,0 l/m 0 min 0 min 39 W/m 12,6 km/h (3 Bft)
16.03.2015 17:58 13,1 C 8,9 C 60 % 1022,1 hPa 0,0 l/m 0 min 0 min 36 W/m 10,5 km/h (2 Bft)
16.03.2015 18:00 13,1 C 8,9 C 60 % 1022,1 hPa 0,0 l/m 0 min 0 min 33 W/m 10,5 km/h (2 Bft)
16.03.2015 18:02 12,9 C 8,9 C 60 % 1022,2 hPa 0,0 l/m 0 min 0 min 32 W/m 8,4 km/h (2 Bft)
16.03.2015 18:06 12,8 C 8,3 C 60 % 1022,1 hPa 0,0 l/m 0 min 0 min 30 W/m 8,4 km/h (2 Bft)
16.03.2015 18:08 12,8 C 8,3 C 60 % 1022,2 hPa 0,0 l/m 0 min 0 min 28 W/m 10,5 km/h (2 Bft)
16.03.2015 18:10 12,7 C 8,3 C 61 % 1022,2 hPa 0,0 l/m 0 min 0 min 26 W/m 6,3 km/h (2 Bft)
16.03.2015 18:12 12,7 C 8,3 C 61 % 1022,3 hPa 0,0 l/m 0 min 0 min 24 W/m 8,4 km/h (2 Bft)
16.03.2015 18:14 12,6 C 8,3 C 61 % 1022,3 hPa 0,0 l/m 0 min 0 min 22 W/m 4,2 km/h (1 Bft)
16.03.2015 18:16 12,6 C 7,8 C 61 % 1022,4 hPa 0,0 l/m 0 min 0 min 19 W/m 8,4 km/h (2 Bft)
16.03.2015 18:18 12,5 C 7,8 C 62 % 1022,4 hPa 0,0 l/m 0 min 0 min 18 W/m 12,6 km/h (3 Bft)
16.03.2015 18:20 12,4 C 8,3 C 63 % 1022,5 hPa 0,0 l/m 2 min 0 min 17 W/m 10,5 km/h (2 Bft)
16.03.2015 18:22 12,3 C 8,3 C 64 % 1022,5 hPa 0,0 l/m 2 min 0 min 16 W/m 8,4 km/h (2 Bft)
16.03.2015 18:24 12,2 C 8,3 C 65 % 1022,5 hPa 0,0 l/m 2 min 0 min 15 W/m 8,4 km/h (2 Bft)
16.03.2015 18:26 12,1 C 8,3 C 65 % 1022,6 hPa 0,0 l/m 2 min 0 min 14 W/m 6,3 km/h (2 Bft)
16.03.2015 18:28 12,1 C 7,8 C 65 % 1022,6 hPa 0,0 l/m 2 min 0 min 13 W/m 8,4 km/h (2 Bft)
16.03.2015 18:30 11,9 C 7,8 C 66 % 1022,6 hPa 0,0 l/m 0 min 0 min 12 W/m 6,3 km/h (2 Bft)
16.03.2015 18:32 11,9 C 7,8 C 66 % 1022,6 hPa 0,0 l/m 0 min 0 min 11 W/m 8,4 km/h (2 Bft)
16.03.2015 18:34 11,8 C 7,8 C 66 % 1022,6 hPa 0,0 l/m 0 min 0 min 11 W/m 8,4 km/h (2 Bft)
16.03.2015 18:36 11,8 C 7,8 C 66 % 1022,6 hPa 0,0 l/m 0 min 0 min 9 W/m 6,3 km/h (2 Bft)
16.03.2015 18:38 11,7 C 7,8 C 66 % 1022,6 hPa 0,0 l/m 0 min 0 min 9 W/m 4,2 km/h (1 Bft)
16.03.2015 18:40 11,7 C 7,2 C 66 % 1022,6 hPa 0,0 l/m 0 min 0 min 7 W/m 4,2 km/h (1 Bft)
16.03.2015 18:42 11,6 C 7,2 C 66 % 1022,6 hPa 0,0 l/m 0 min 0 min 6 W/m 4,2 km/h (1 Bft)
16.03.2015 18:44 11,6 C 7,2 C 67 % 1022,6 hPa 0,0 l/m 0 min 0 min 5 W/m 2,1 km/h (1 Bft)
16.03.2015 18:46 11,4 C 7,2 C 67 % 1022,6 hPa 0,0 l/m 0 min 0 min 3 W/m 4,2 km/h (1 Bft)
16.03.2015 18:48 11,4 C 7,2 C 67 % 1022,6 hPa 0,0 l/m 0 min 0 min 0 W/m 2,1 km/h (1 Bft)
16.03.2015 18:50 11,3 C 7,2 C 67 % 1022,5 hPa 0,0 l/m 0 min 0 min 0 W/m 2,1 km/h (1 Bft)
16.03.2015 18:52 11,3 C 6,7 C 67 % 1022,6 hPa 0,0 l/m 0 min 0 min 0 W/m 2,1 km/h (1 Bft)
16.03.2015 18:54 11,2 C 6,7 C 68 % 1022,6 hPa 0,0 l/m 0 min 0 min 0 W/m 4,2 km/h (1 Bft)
16.03.2015 18:56 11,2 C 6,7 C 68 % 1022,7 hPa 0,0 l/m 0 min 0 min 0 W/m 2,1 km/h (1 Bft)
16.03.2015 18:58 11,1 C 6,7 C 68 % 1022,6 hPa 0,0 l/m 0 min 0 min 0 W/m 2,1 km/h (1 Bft)
16.03.2015 19:00 11,1 C 6,7 C 69 % 1022,7 hPa 0,0 l/m 0 min 0 min 0 W/m 4,2 km/h (1 Bft)
16.03.2015 19:02 11,0 C 6,7 C 69 % 1022,6 hPa 0,0 l/m 0 min 0 min 0 W/m 4,2 km/h (1 Bft)
16.03.2015 19:04 10,9 C 6,7 C 69 % 1022,6 hPa 0,0 l/m 0 min 0 min 0 W/m 4,2 km/h (1 Bft)
16.03.2015 19:06 10,9 C 6,7 C 69 % 1022,6 hPa 0,0 l/m 0 min 0 min 0 W/m 4,2 km/h (1 Bft)
16.03.2015 19:08 10,8 C 6,7 C 70 % 1022,7 hPa 0,0 l/m 0 min 0 min 0 W/m 4,2 km/h (1 Bft)
16.03.2015 19:10 10,8 C 6,7 C 70 % 1022,6 hPa 0,0 l/m 0 min 0 min 0 W/m 4,2 km/h (1 Bft)
16.03.2015 19:12 10,8 C 6,7 C 70 % 1022,7 hPa 0,0 l/m 0 min 0 min 0 W/m 4,2 km/h (1 Bft)
16.03.2015 19:14 10,7 C 6,7 C 70 % 1022,7 hPa 0,0 l/m 0 min 0 min 0 W/m 4,2 km/h (1 Bft)
16.03.2015 19:16 10,7 C 6,7 C 70 % 1022,7 hPa 0,0 l/m 0 min 0 min 0 W/m 2,1 km/h (1 Bft)
16.03.2015 19:18 10,6 C 6,7 C 70 % 1022,7 hPa 0,0 l/m 0 min 0 min 0 W/m 2,1 km/h (1 Bft)
16.03.2015 19:20 10,5 C 6,1 C 70 % 1022,6 hPa 0,0 l/m 0 min 0 min 0 W/m 4,2 km/h (1 Bft)
16.03.2015 19:22 10,4 C 6,1 C 70 % 1022,7 hPa 0,0 l/m 0 min 0 min 0 W/m 4,2 km/h (1 Bft)
16.03.2015 19:24 10,4 C 6,1 C 70 % 1022,6 hPa 0,0 l/m 0 min 0 min 0 W/m 4,2 km/h (1 Bft)
16.03.2015 19:26 10,3 C 6,1 C 71 % 1022,7 hPa 0,0 l/m 0 min 0 min 0 W/m 2,1 km/h (1 Bft)
16.03.2015 19:28 10,3 C 6,1 C 71 % 1022,7 hPa 0,0 l/m 0 min 0 min 0 W/m 2,1 km/h (1 Bft)
16.03.2015 19:30 10,2 C 6,1 C 71 % 1022,6 hPa 0,0 l/m 0 min 0 min 0 W/m 2,1 km/h (1 Bft)
16.03.2015 19:32 10,1 C 6,1 C 71 % 1022,7 hPa 0,0 l/m 0 min 0 min 0 W/m 2,1 km/h (1 Bft)
16.03.2015 19:34 10,1 C 6,1 C 71 % 1022,7 hPa 0,0 l/m 0 min 0 min 0 W/m 0,0 km/h (0 Bft)
16.03.2015 19:36 10,0 C 6,1 C 71 % 1022,7 hPa 0,0 l/m 0 min 0 min 0 W/m 0,0 km/h (0 Bft)
16.03.2015 19:38 9,9 C 6,1 C 71 % 1022,7 hPa 0,0 l/m 0 min 0 min 0 W/m 0,0 km/h (0 Bft)
16.03.2015 19:40 9,9 C 6,1 C 72 % 1022,7 hPa 0,0 l/m 0 min 0 min 0 W/m 0,0 km/h (0 Bft)
16.03.2015 19:42 9,8 C 6,1 C 72 % 1022,7 hPa 0,0 l/m 0 min 0 min 0 W/m 0,0 km/h (0 Bft)
16.03.2015 19:44 9,7 C 6,1 C 72 % 1022,7 hPa 0,0 l/m 0 min 0 min 0 W/m 0,0 km/h (0 Bft)
16.03.2015 19:46 9,7 C 6,1 C 72 % 1022,7 hPa 0,0 l/m 0 min 0 min 0 W/m 0,0 km/h (0 Bft)
16.03.2015 19:48 9,6 C 5,6 C 73 % 1022,7 hPa 0,0 l/m 0 min 0 min 0 W/m 0,0 km/h (0 Bft)
16.03.2015 19:50 9,6 C 5,6 C 73 % 1022,7 hPa 0,0 l/m 0 min 0 min 0 W/m 2,1 km/h (1 Bft)
16.03.2015 19:52 9,5 C 5,6 C 73 % 1022,7 hPa 0,0 l/m 0 min 0 min 0 W/m 2,1 km/h (1 Bft)
16.03.2015 19:54 9,4 C 5,6 C 73 % 1022,7 hPa 0,0 l/m 0 min 0 min 0 W/m 2,1 km/h (1 Bft)
16.03.2015 19:56 9,4 C 5,6 C 74 % 1022,7 hPa 0,0 l/m 0 min 0 min 0 W/m 2,1 km/h (1 Bft)
16.03.2015 19:58 9,3 C 5,6 C 74 % 1022,7 hPa 0,0 l/m 0 min 0 min 0 W/m 2,1 km/h (1 Bft)
16.03.2015 20:00 9,3 C 5,6 C 74 % 1022,7 hPa 0,0 l/m 0 min 0 min 0 W/m 2,1 km/h (1 Bft)
16.03.2015 20:02 9,2 C 5,6 C 74 % 1022,7 hPa 0,0 l/m 0 min 0 min 0 W/m 0,0 km/h (0 Bft)
16.03.2015 20:04 9,2 C 5,0 C 74 % 1022,7 hPa 0,0 l/m 0 min 0 min 0 W/m 0,0 km/h (0 Bft)
16.03.2015 20:06 9,1 C 5,0 C 75 % 1022,7 hPa 0,0 l/m 0 min 0 min 0 W/m 2,1 km/h (1 Bft)
16.03.2015 20:08 9,0 C 5,0 C 75 % 1022,7 hPa 0,0 l/m 0 min 0 min 0 W/m 2,1 km/h (1 Bft)
16.03.2015 20:10 8,9 C 5,0 C 75 % 1022,7 hPa 0,0 l/m 0 min 0 min 0 W/m 4,2 km/h (1 Bft)
16.03.2015 20:12 8,9 C 5,0 C 75 % 1022,7 hPa 0,0 l/m 0 min 0 min 0 W/m 2,1 km/h (1 Bft)
16.03.2015 20:14 8,8 C 5,0 C 75 % 1022,7 hPa 0,0 l/m 0 min 0 min 0 W/m 2,1 km/h (1 Bft)
16.03.2015 20:16 8,8 C 5,0 C 75 % 1022,7 hPa 0,0 l/m 0 min 0 min 0 W/m 2,1 km/h (1 Bft)
16.03.2015 20:18 8,7 C 4,4 C 76 % 1022,7 hPa 0,0 l/m 0 min 0 min 0 W/m 2,1 km/h (1 Bft)
16.03.2015 20:20 8,7 C 4,4 C 76 % 1022,7 hPa 0,0 l/m 0 min 0 min 0 W/m 2,1 km/h (1 Bft)
16.03.2015 20:22 8,6 C 4,4 C 76 % 1022,7 hPa 0,0 l/m 0 min 0 min 0 W/m 2,1 km/h (1 Bft)
16.03.2015 20:24 8,6 C 4,4 C 76 % 1022,7 hPa 0,0 l/m 0 min 0 min 0 W/m 2,1 km/h (1 Bft)
16.03.2015 20:26 8,4 C 4,4 C 77 % 1022,7 hPa 0,0 l/m 0 min 0 min 0 W/m 2,1 km/h (1 Bft)
16.03.2015 20:28 8,4 C 4,4 C 77 % 1022,7 hPa 0,0 l/m 0 min 0 min 0 W/m 2,1 km/h (1 Bft)
16.03.2015 20:30 8,3 C 4,4 C 77 % 1022,7 hPa 0,0 l/m 0 min 0 min 0 W/m 2,1 km/h (1 Bft)
16.03.2015 20:32 8,3 C 4,4 C 77 % 1022,7 hPa 0,0 l/m 0 min 0 min 0 W/m 2,1 km/h (1 Bft)
16.03.2015 20:34 8,2 C 4,4 C 77 % 1022,7 hPa 0,0 l/m 0 min 0 min 0 W/m 2,1 km/h (1 Bft)
16.03.2015 20:36 8,2 C 4,4 C 77 % 1022,7 hPa 0,0 l/m 0 min 0 min 0 W/m 2,1 km/h (1 Bft)
16.03.2015 20:38 8,1 C 4,4 C 77 % 1022,7 hPa 0,0 l/m 0 min 0 min 0 W/m 4,2 km/h (1 Bft)
16.03.2015 20:40 8,1 C 3,9 C 78 % 1022,8 hPa 0,0 l/m 0 min 0 min 0 W/m 4,2 km/h (1 Bft)
16.03.2015 20:42 8,0 C 3,9 C 78 % 1022,8 hPa 0,0 l/m 0 min 0 min 0 W/m 4,2 km/h (1 Bft)
16.03.2015 20:44 8,0 C 3,9 C 78 % 1022,8 hPa 0,0 l/m 0 min 0 min 0 W/m 4,2 km/h (1 Bft)
16.03.2015 20:46 7,9 C 3,9 C 78 % 1022,8 hPa 0,0 l/m 0 min 0 min 0 W/m 4,2 km/h (1 Bft)
16.03.2015 20:48 7,9 C 3,9 C 79 % 1022,8 hPa 0,0 l/m 0 min 0 min 0 W/m 4,2 km/h (1 Bft)
16.03.2015 20:50 7,8 C 3,9 C 79 % 1022,8 hPa 0,0 l/m 0 min 0 min 0 W/m 4,2 km/h (1 Bft)
16.03.2015 20:52 7,8 C 3,9 C 79 % 1022,8 hPa 0,0 l/m 0 min 0 min 0 W/m 2,1 km/h (1 Bft)
16.03.2015 20:54 7,7 C 3,9 C 79 % 1022,8 hPa 0,0 l/m 0 min 0 min 0 W/m 2,1 km/h (1 Bft)
16.03.2015 20:56 7,7 C 3,9 C 79 % 1022,8 hPa 0,0 l/m 0 min 0 min 0 W/m 0,0 km/h (0 Bft)
16.03.2015 20:58 7,6 C 3,9 C 79 % 1022,8 hPa 0,0 l/m 0 min 0 min 0 W/m 0,0 km/h (0 Bft)
16.03.2015 21:00 7,5 C 3,9 C 79 % 1022,8 hPa 0,0 l/m 0 min 0 min 0 W/m 0,0 km/h (0 Bft)
16.03.2015 21:02 7,4 C 3,9 C 79 % 1022,9 hPa 0,0 l/m 0 min 0 min 0 W/m 0,0 km/h (0 Bft)
16.03.2015 21:04 7,4 C 3,9 C 79 % 1022,9 hPa 0,0 l/m 0 min 0 min 0 W/m 0,0 km/h (0 Bft)
16.03.2015 21:06 7,3 C 3,3 C 79 % 1022,9 hPa 0,0 l/m 0 min 0 min 0 W/m 4,2 km/h (1 Bft)
16.03.2015 21:08 7,2 C 3,3 C 79 % 1022,9 hPa 0,0 l/m 0 min 0 min 0 W/m 2,1 km/h (1 Bft)
16.03.2015 21:10 7,2 C 3,3 C 79 % 1022,9 hPa 0,0 l/m 0 min 0 min 0 W/m 2,1 km/h (1 Bft)
16.03.2015 21:12 7,1 C 3,3 C 80 % 1022,9 hPa 0,0 l/m 0 min 0 min 0 W/m 2,1 km/h (1 Bft)
16.03.2015 21:14 7,1 C 3,3 C 79 % 1022,9 hPa 0,0 l/m 0 min 0 min 0 W/m 2,1 km/h (1 Bft)
16.03.2015 21:16 7,0 C 3,3 C 79 % 1022,9 hPa 0,0 l/m 0 min 0 min 0 W/m 2,1 km/h (1 Bft)
16.03.2015 21:18 6,9 C 3,3 C 80 % 1022,9 hPa 0,0 l/m 0 min 0 min 0 W/m 2,1 km/h (1 Bft)
16.03.2015 21:20 6,9 C 3,3 C 80 % 1022,9 hPa 0,0 l/m 0 min 0 min 0 W/m 2,1 km/h (1 Bft)
16.03.2015 21:22 6,8 C 3,3 C 80 % 1023,0 hPa 0,0 l/m 0 min 0 min 0 W/m 2,1 km/h (1 Bft)
16.03.2015 21:24 6,8 C 3,3 C 80 % 1023,0 hPa 0,0 l/m 0 min 0 min 0 W/m 0,0 km/h (0 Bft)
16.03.2015 21:26 6,7 C 2,8 C 80 % 1023,0 hPa 0,0 l/m 0 min 0 min 0 W/m 0,0 km/h (0 Bft)
16.03.2015 21:28 6,7 C 2,8 C 80 % 1023,0 hPa 0,0 l/m 0 min 0 min 0 W/m 2,1 km/h (1 Bft)
16.03.2015 21:30 6,6 C 2,8 C 80 % 1023,0 hPa 0,0 l/m 0 min 0 min 0 W/m 2,1 km/h (1 Bft)
16.03.2015 21:32 6,6 C 2,8 C 81 % 1023,0 hPa 0,0 l/m 0 min 0 min 0 W/m 2,1 km/h (1 Bft)
16.03.2015 21:34 6,5 C 2,8 C 81 % 1023,0 hPa 0,0 l/m 0 min 0 min 0 W/m 2,1 km/h (1 Bft)
16.03.2015 21:36 6,4 C 2,8 C 81 % 1023,0 hPa 0,0 l/m 0 min 0 min 0 W/m 2,1 km/h (1 Bft)
16.03.2015 21:38 6,4 C 2,8 C 81 % 1023,1 hPa 0,0 l/m 0 min 0 min 0 W/m 2,1 km/h (1 Bft)
16.03.2015 21:40 6,4 C 2,8 C 81 % 1023,1 hPa 0,0 l/m 0 min 0 min 0 W/m 4,2 km/h (1 Bft)
16.03.2015 21:42 6,3 C 2,8 C 82 % 1023,2 hPa 0,0 l/m 0 min 0 min 0 W/m 2,1 km/h (1 Bft)
16.03.2015 21:44 6,3 C 2,8 C 82 % 1023,2 hPa 0,0 l/m 0 min 0 min 0 W/m 2,1 km/h (1 Bft)
16.03.2015 21:46 6,2 C 2,8 C 81 % 1023,1 hPa 0,0 l/m 0 min 0 min 0 W/m 2,1 km/h (1 Bft)
16.03.2015 21:48 6,2 C 2,8 C 82 % 1023,2 hPa 0,0 l/m 0 min 0 min 0 W/m 0,0 km/h (0 Bft)
16.03.2015 21:50 6,1 C 2,8 C 82 % 1023,2 hPa 0,0 l/m 0 min 0 min 0 W/m 2,1 km/h (1 Bft)
16.03.2015 21:52 6,1 C 2,8 C 82 % 1023,2 hPa 0,0 l/m 0 min 0 min 0 W/m 2,1 km/h (1 Bft)
16.03.2015 21:54 6,0 C 2,8 C 82 % 1023,2 hPa 0,0 l/m 0 min 0 min 0 W/m 2,1 km/h (1 Bft)
16.03.2015 21:56 6,0 C 2,8 C 83 % 1023,2 hPa 0,0 l/m 0 min 0 min 0 W/m 2,1 km/h (1 Bft)
16.03.2015 21:58 5,9 C 2,2 C 83 % 1023,2 hPa 0,0 l/m 0 min 0 min 0 W/m 2,1 km/h (1 Bft)
16.03.2015 22:00 5,9 C 2,2 C 83 % 1023,2 hPa 0,0 l/m 0 min 0 min 0 W/m 2,1 km/h (1 Bft)
16.03.2015 22:02 5,9 C 2,2 C 83 % 1023,2 hPa 0,0 l/m 0 min 0 min 0 W/m 0,0 km/h (0 Bft)
16.03.2015 22:04 5,8 C 2,2 C 83 % 1023,2 hPa 0,0 l/m 0 min 0 min 0 W/m 0,0 km/h (0 Bft)
16.03.2015 22:06 5,8 C 2,2 C 83 % 1023,1 hPa 0,0 l/m 0 min 0 min 0 W/m 0,0 km/h (0 Bft)
16.03.2015 22:08 5,7 C 2,2 C 83 % 1023,1 hPa 0,0 l/m 0 min 0 min 0 W/m 0,0 km/h (0 Bft)
16.03.2015 22:10 5,7 C 2,2 C 83 % 1023,1 hPa 0,0 l/m 0 min 0 min 0 W/m 2,1 km/h (1 Bft)
16.03.2015 22:12 5,7 C 2,2 C 84 % 1023,2 hPa 0,0 l/m 0 min 0 min 0 W/m 2,1 km/h (1 Bft)
16.03.2015 22:14 5,6 C 2,2 C 84 % 1023,1 hPa 0,0 l/m 0 min 0 min 0 W/m 4,2 km/h (1 Bft)
16.03.2015 22:16 5,6 C 2,2 C 84 % 1023,1 hPa 0,0 l/m 0 min 0 min 0 W/m 2,1 km/h (1 Bft)
16.03.2015 22:18 5,5 C 2,2 C 84 % 1023,1 hPa 0,0 l/m 0 min 0 min 0 W/m 4,2 km/h (1 Bft)
16.03.2015 22:20 5,4 C 2,2 C 84 % 1023,1 hPa 0,0 l/m 0 min 0 min 0 W/m 4,2 km/h (1 Bft)
16.03.2015 22:22 5,4 C 2,2 C 84 % 1023,2 hPa 0,0 l/m 0 min 0 min 0 W/m 4,2 km/h (1 Bft)
16.03.2015 22:24 5,4 C 2,2 C 84 % 1023,1 hPa 0,0 l/m 0 min 0 min 0 W/m 4,2 km/h (1 Bft)
16.03.2015 22:26 5,3 C 2,2 C 84 % 1023,1 hPa 0,0 l/m 0 min 0 min 0 W/m 4,2 km/h (1 Bft)
16.03.2015 22:28 5,3 C 2,2 C 84 % 1023,1 hPa 0,0 l/m 0 min 0 min 0 W/m 2,1 km/h (1 Bft)
16.03.2015 22:30 5,2 C 2,2 C 84 % 1023,1 hPa 0,0 l/m 0 min 0 min 0 W/m 4,2 km/h (1 Bft)
16.03.2015 22:32 5,2 C 2,2 C 84 % 1023,1 hPa 0,0 l/m 0 min 0 min 0 W/m 4,2 km/h (1 Bft)
16.03.2015 22:34 5,1 C 2,2 C 84 % 1023,1 hPa 0,0 l/m 0 min 0 min 0 W/m 4,2 km/h (1 Bft)
16.03.2015 22:36 5,1 C 2,2 C 84 % 1023,1 hPa 0,0 l/m 0 min 0 min 0 W/m 4,2 km/h (1 Bft)
16.03.2015 22:38 5,1 C 2,2 C 84 % 1023,2 hPa 0,0 l/m 0 min 0 min 0 W/m 4,2 km/h (1 Bft)
16.03.2015 22:40 5,1 C 2,2 C 84 % 1023,2 hPa 0,0 l/m 0 min 0 min 0 W/m 4,2 km/h (1 Bft)
16.03.2015 22:42 5,0 C 2,2 C 84 % 1023,2 hPa 0,0 l/m 0 min 0 min 0 W/m 4,2 km/h (1 Bft)
16.03.2015 22:44 4,9 C 1,7 C 84 % 1023,1 hPa 0,0 l/m 0 min 0 min 0 W/m 4,2 km/h (1 Bft)
16.03.2015 22:46 4,9 C 1,7 C 84 % 1023,1 hPa 0,0 l/m 0 min 0 min 0 W/m 4,2 km/h (1 Bft)
16.03.2015 22:48 4,9 C 1,7 C 84 % 1023,1 hPa 0,0 l/m 0 min 0 min 0 W/m 4,2 km/h (1 Bft)
16.03.2015 22:50 4,8 C 1,7 C 84 % 1023,1 hPa 0,0 l/m 0 min 0 min 0 W/m 6,3 km/h (2 Bft)
16.03.2015 22:52 4,8 C 1,7 C 84 % 1023,1 hPa 0,0 l/m 0 min 0 min 0 W/m 6,3 km/h (2 Bft)
16.03.2015 22:54 4,7 C 1,7 C 84 % 1023,0 hPa 0,0 l/m 0 min 0 min 0 W/m 6,3 km/h (2 Bft)
16.03.2015 22:56 4,7 C 1,7 C 84 % 1023,0 hPa 0,0 l/m 0 min 0 min 0 W/m 6,3 km/h (2 Bft)
16.03.2015 22:58 4,7 C 1,7 C 85 % 1023,1 hPa 0,0 l/m 0 min 0 min 0 W/m 6,3 km/h (2 Bft)
16.03.2015 23:00 4,7 C 1,7 C 85 % 1023,0 hPa 0,0 l/m 0 min 0 min 0 W/m 4,2 km/h (1 Bft)
16.03.2015 23:02 4,6 C 1,7 C 85 % 1023,0 hPa 0,0 l/m 0 min 0 min 0 W/m 4,2 km/h (1 Bft)
16.03.2015 23:04 4,6 C 1,7 C 85 % 1023,0 hPa 0,0 l/m 0 min 0 min 0 W/m 2,1 km/h (1 Bft)
16.03.2015 23:06 4,5 C 1,7 C 85 % 1023,1 hPa 0,0 l/m 0 min 0 min 0 W/m 0,0 km/h (0 Bft)
16.03.2015 23:08 4,5 C 1,7 C 85 % 1023,1 hPa 0,0 l/m 0 min 0 min 0 W/m 0,0 km/h (0 Bft)
16.03.2015 23:10 4,5 C 1,7 C 85 % 1023,0 hPa 0,0 l/m 0 min 0 min 0 W/m 0,0 km/h (0 Bft)
16.03.2015 23:12 4,4 C 1,7 C 85 % 1023,0 hPa 0,0 l/m 0 min 0 min 0 W/m 2,1 km/h (1 Bft)
16.03.2015 23:14 4,4 C 1,7 C 85 % 1023,2 hPa 0,0 l/m 0 min 0 min 0 W/m 2,1 km/h (1 Bft)
16.03.2015 23:16 4,4 C 1,7 C 86 % 1023,1 hPa 0,0 l/m 0 min 0 min 0 W/m 2,1 km/h (1 Bft)
16.03.2015 23:18 4,4 C 1,7 C 85 % 1023,1 hPa 0,0 l/m 0 min 0 min 0 W/m 2,1 km/h (1 Bft)
16.03.2015 23:20 4,3 C 1,7 C 86 % 1023,1 hPa 0,0 l/m 0 min 0 min 0 W/m 2,1 km/h (1 Bft)
16.03.2015 23:22 4,3 C 1,7 C 86 % 1023,0 hPa 0,0 l/m 0 min 0 min 0 W/m 4,2 km/h (1 Bft)
16.03.2015 23:24 4,3 C 1,7 C 86 % 1023,1 hPa 0,0 l/m 0 min 0 min 0 W/m 4,2 km/h (1 Bft)
16.03.2015 23:26 4,2 C 1,7 C 86 % 1023,2 hPa 0,0 l/m 0 min 0 min 0 W/m 4,2 km/h (1 Bft)
16.03.2015 23:28 4,2 C 1,7 C 86 % 1023,1 hPa 0,0 l/m 0 min 0 min 0 W/m 2,1 km/h (1 Bft)
16.03.2015 23:30 4,2 C 1,7 C 86 % 1023,1 hPa 0,0 l/m 0 min 0 min 0 W/m 2,1 km/h (1 Bft)
16.03.2015 23:32 4,2 C 1,7 C 86 % 1023,1 hPa 0,0 l/m 0 min 0 min 0 W/m 2,1 km/h (1 Bft)
16.03.2015 23:34 4,1 C 1,7 C 86 % 1023,1 hPa 0,0 l/m 0 min 0 min 0 W/m 2,1 km/h (1 Bft)
16.03.2015 23:36 4,1 C 1,1 C 86 % 1023,1 hPa 0,0 l/m 0 min 0 min 0 W/m 4,2 km/h (1 Bft)
16.03.2015 23:38 4,1 C 1,1 C 86 % 1023,1 hPa 0,0 l/m 0 min 0 min 0 W/m 2,1 km/h (1 Bft)
16.03.2015 23:40 4,1 C 1,1 C 87 % 1023,1 hPa 0,0 l/m 0 min 0 min 0 W/m 2,1 km/h (1 Bft)
16.03.2015 23:42 4,0 C 1,1 C 87 % 1023,1 hPa 0,0 l/m 0 min 0 min 0 W/m 4,2 km/h (1 Bft)
16.03.2015 23:44 4,0 C 1,1 C 87 % 1023,1 hPa 0,0 l/m 0 min 0 min 0 W/m 4,2 km/h (1 Bft)
16.03.2015 23:46 3,9 C 1,1 C 87 % 1023,1 hPa 0,0 l/m 0 min 0 min 0 W/m 6,3 km/h (2 Bft)
16.03.2015 23:48 3,9 C 1,1 C 87 % 1023,1 hPa 0,0 l/m 0 min 0 min 0 W/m 6,3 km/h (2 Bft)
16.03.2015 23:50 3,9 C 1,1 C 87 % 1023,1 hPa 0,0 l/m 0 min 0 min 0 W/m 6,3 km/h (2 Bft)
16.03.2015 23:52 3,9 C 1,1 C 87 % 1023,2 hPa 0,0 l/m 0 min 0 min 0 W/m 4,2 km/h (1 Bft)
16.03.2015 23:54 3,8 C 1,1 C 87 % 1023,2 hPa 0,0 l/m 0 min 0 min 0 W/m 4,2 km/h (1 Bft)
16.03.2015 23:56 3,8 C 1,1 C 87 % 1023,2 hPa 0,0 l/m 0 min 0 min 0 W/m 4,2 km/h (1 Bft)
16.03.2015 23:58 3,8 C 1,1 C 87 % 1023,2 hPa 0,0 l/m 0 min 0 min 0 W/m 4,2 km/h (1 Bft)
_ Min-Zeit 04:18 03:46 15:00 16:04 - - - - 19:34
Minimum _ 0,3 C -1,7 C 56 % 1021,2 hPa - - - - 0,0 km/h (0 Bft)
_ Max-Zeit 15:50 14:36 09:08 00:00 08:08 06:58 00:00 12:02 10:12
Maximum _ 14,4 C 16,7 C 97 % 1024,3 hPa 0,2 l/m 2 min 0 min 618 W/m 23,0 km/h
O (4 Bft)
Durchschnitt _ 6,9 C 4,7 C 79 % 1022,8 hPa #0,2 l/m #10:48 h #0 min. 320 W/m 8,5 km/h (2 Bft)
© 2015 W. Hausmann